<?xml version="1.0" encoding="UTF-8" standalone="no" ?>
<gpx xmlns="http://www.topografix.com/GPX/1/1" xmlns:xsi="http://www.w3.org/2001/XMLSchema-instance" xsi:schemaLocation="http://www.topografix.com/GPX/1/1 http://www.topografix.com/GPX/1/1/gpx.xsd" version="1.1" creator="VisuGPX - https://www.visugpx.com">
  <metadata>
    <name>Randonnée raquettes nocturne.</name>
    <desc><![CDATA[départ Collet , la Schlucht, refuge des trois fours,retour Collet.]]></desc>
  </metadata>
  <trk>
    <name><![CDATA[2016-03-15 22:22:49]]></name>
    <trkseg>
      <trkpt lat="48.05397" lon="7.00487">
        <ele>1115.3</ele>
        <time>2016-03-15T16:29:26Z</time>
      </trkpt>
      <trkpt lat="48.05397" lon="7.00487">
        <ele>1115.3</ele>
        <time>2016-03-15T16:29:27Z</time>
      </trkpt>
      <trkpt lat="48.05399" lon="7.00494">
        <ele>1113.96</ele>
        <time>2016-03-15T16:29:54Z</time>
      </trkpt>
      <trkpt lat="48.05396" lon="7.00495">
        <ele>1114.58</ele>
        <time>2016-03-15T16:30:22Z</time>
      </trkpt>
      <trkpt lat="48.05396" lon="7.00498">
        <ele>1114.34</ele>
        <time>2016-03-15T16:30:53Z</time>
      </trkpt>
      <trkpt lat="48.05395" lon="7.00498">
        <ele>1114.14</ele>
        <time>2016-03-15T16:31:19Z</time>
      </trkpt>
      <trkpt lat="48.05395" lon="7.00499">
        <ele>1113.86</ele>
        <time>2016-03-15T16:31:50Z</time>
      </trkpt>
      <trkpt lat="48.05396" lon="7.00498">
        <ele>1113.35</ele>
        <time>2016-03-15T16:32:14Z</time>
      </trkpt>
      <trkpt lat="48.05395" lon="7.00497">
        <ele>1114.22</ele>
        <time>2016-03-15T16:32:38Z</time>
      </trkpt>
      <trkpt lat="48.05394" lon="7.00499">
        <ele>1114.5</ele>
        <time>2016-03-15T16:33:03Z</time>
      </trkpt>
      <trkpt lat="48.05393" lon="7.00497">
        <ele>1114.57</ele>
        <time>2016-03-15T16:33:30Z</time>
      </trkpt>
      <trkpt lat="48.05394" lon="7.00498">
        <ele>1114.18</ele>
        <time>2016-03-15T16:33:56Z</time>
      </trkpt>
      <trkpt lat="48.05396" lon="7.00498">
        <ele>1114.31</ele>
        <time>2016-03-15T16:34:21Z</time>
      </trkpt>
      <trkpt lat="48.05395" lon="7.00499">
        <ele>1112.5</ele>
        <time>2016-03-15T16:34:56Z</time>
      </trkpt>
      <trkpt lat="48.05396" lon="7.005">
        <ele>1114.05</ele>
        <time>2016-03-15T16:34:58Z</time>
      </trkpt>
      <trkpt lat="48.05407" lon="7.00495">
        <ele>1114.06</ele>
        <time>2016-03-15T16:35:12Z</time>
      </trkpt>
      <trkpt lat="48.05419" lon="7.0049">
        <ele>1113.96</ele>
        <time>2016-03-15T16:35:26Z</time>
      </trkpt>
      <trkpt lat="48.05434" lon="7.00502">
        <ele>1114.25</ele>
        <time>2016-03-15T16:35:40Z</time>
      </trkpt>
      <trkpt lat="48.05447" lon="7.00511">
        <ele>1114.37</ele>
        <time>2016-03-15T16:35:57Z</time>
      </trkpt>
      <trkpt lat="48.05448" lon="7.00512">
        <ele>1114.54</ele>
        <time>2016-03-15T16:36:14Z</time>
      </trkpt>
      <trkpt lat="48.05449" lon="7.00513">
        <ele>1114.34</ele>
        <time>2016-03-15T16:36:40Z</time>
      </trkpt>
      <trkpt lat="48.05449" lon="7.00511">
        <ele>1114.41</ele>
        <time>2016-03-15T16:37:03Z</time>
      </trkpt>
      <trkpt lat="48.05448" lon="7.00513">
        <ele>1114.27</ele>
        <time>2016-03-15T16:37:28Z</time>
      </trkpt>
      <trkpt lat="48.0545" lon="7.00512">
        <ele>1114.07</ele>
        <time>2016-03-15T16:37:49Z</time>
      </trkpt>
      <trkpt lat="48.05454" lon="7.00515">
        <ele>1113.67</ele>
        <time>2016-03-15T16:37:58Z</time>
      </trkpt>
      <trkpt lat="48.05468" lon="7.00533">
        <ele>1113.39</ele>
        <time>2016-03-15T16:38:16Z</time>
      </trkpt>
      <trkpt lat="48.05481" lon="7.0055">
        <ele>1113.26</ele>
        <time>2016-03-15T16:38:32Z</time>
      </trkpt>
      <trkpt lat="48.05488" lon="7.00551">
        <ele>1112.88</ele>
        <time>2016-03-15T16:38:47Z</time>
      </trkpt>
      <trkpt lat="48.0549" lon="7.0055">
        <ele>1112.86</ele>
        <time>2016-03-15T16:38:56Z</time>
      </trkpt>
      <trkpt lat="48.05502" lon="7.00551">
        <ele>1112.69</ele>
        <time>2016-03-15T16:39:07Z</time>
      </trkpt>
      <trkpt lat="48.05508" lon="7.00551">
        <ele>1112.16</ele>
        <time>2016-03-15T16:39:20Z</time>
      </trkpt>
      <trkpt lat="48.05511" lon="7.00545">
        <ele>1109.99</ele>
        <time>2016-03-15T16:39:30Z</time>
      </trkpt>
      <trkpt lat="48.05515" lon="7.00537">
        <ele>1108.44</ele>
        <time>2016-03-15T16:39:43Z</time>
      </trkpt>
      <trkpt lat="48.05522" lon="7.00531">
        <ele>1105.84</ele>
        <time>2016-03-15T16:40:01Z</time>
      </trkpt>
      <trkpt lat="48.05524" lon="7.00537">
        <ele>1104.67</ele>
        <time>2016-03-15T16:40:18Z</time>
      </trkpt>
      <trkpt lat="48.05529" lon="7.00532">
        <ele>1103.1</ele>
        <time>2016-03-15T16:40:38Z</time>
      </trkpt>
      <trkpt lat="48.05534" lon="7.00529">
        <ele>1099.87</ele>
        <time>2016-03-15T16:40:51Z</time>
      </trkpt>
      <trkpt lat="48.05539" lon="7.00526">
        <ele>1096.62</ele>
        <time>2016-03-15T16:41:02Z</time>
      </trkpt>
      <trkpt lat="48.05551" lon="7.00536">
        <ele>1094.22</ele>
        <time>2016-03-15T16:41:23Z</time>
      </trkpt>
      <trkpt lat="48.05569" lon="7.00548">
        <ele>1090.75</ele>
        <time>2016-03-15T16:41:42Z</time>
      </trkpt>
      <trkpt lat="48.05583" lon="7.00558">
        <ele>1087.67</ele>
        <time>2016-03-15T16:42:00Z</time>
      </trkpt>
      <trkpt lat="48.05597" lon="7.00563">
        <ele>1087.5</ele>
        <time>2016-03-15T16:42:24Z</time>
      </trkpt>
      <trkpt lat="48.05597" lon="7.00558">
        <ele>1086.76</ele>
        <time>2016-03-15T16:42:44Z</time>
      </trkpt>
      <trkpt lat="48.05601" lon="7.00555">
        <ele>1086.95</ele>
        <time>2016-03-15T16:43:13Z</time>
      </trkpt>
      <trkpt lat="48.05597" lon="7.0056">
        <ele>1087.59</ele>
        <time>2016-03-15T16:43:35Z</time>
      </trkpt>
      <trkpt lat="48.05601" lon="7.00558">
        <ele>1086.28</ele>
        <time>2016-03-15T16:43:56Z</time>
      </trkpt>
      <trkpt lat="48.05605" lon="7.00566">
        <ele>1086.1</ele>
        <time>2016-03-15T16:44:15Z</time>
      </trkpt>
      <trkpt lat="48.05609" lon="7.00577">
        <ele>1086.36</ele>
        <time>2016-03-15T16:44:47Z</time>
      </trkpt>
      <trkpt lat="48.05622" lon="7.00574">
        <ele>1083.54</ele>
        <time>2016-03-15T16:45:05Z</time>
      </trkpt>
      <trkpt lat="48.05635" lon="7.00577">
        <ele>1080.35</ele>
        <time>2016-03-15T16:45:26Z</time>
      </trkpt>
      <trkpt lat="48.0565" lon="7.00579">
        <ele>1077.15</ele>
        <time>2016-03-15T16:45:41Z</time>
      </trkpt>
      <trkpt lat="48.05666" lon="7.00575">
        <ele>1074.05</ele>
        <time>2016-03-15T16:46:00Z</time>
      </trkpt>
      <trkpt lat="48.05681" lon="7.00583">
        <ele>1071.4</ele>
        <time>2016-03-15T16:46:20Z</time>
      </trkpt>
      <trkpt lat="48.05698" lon="7.00594">
        <ele>1069.46</ele>
        <time>2016-03-15T16:46:39Z</time>
      </trkpt>
      <trkpt lat="48.05715" lon="7.00606">
        <ele>1066.34</ele>
        <time>2016-03-15T16:47:01Z</time>
      </trkpt>
      <trkpt lat="48.0573" lon="7.00613">
        <ele>1064.04</ele>
        <time>2016-03-15T16:47:22Z</time>
      </trkpt>
      <trkpt lat="48.05742" lon="7.0062">
        <ele>1059.9</ele>
        <time>2016-03-15T16:47:38Z</time>
      </trkpt>
      <trkpt lat="48.05749" lon="7.00624">
        <ele>1058.79</ele>
        <time>2016-03-15T16:47:59Z</time>
      </trkpt>
      <trkpt lat="48.05752" lon="7.00631">
        <ele>1059.16</ele>
        <time>2016-03-15T16:48:22Z</time>
      </trkpt>
      <trkpt lat="48.05753" lon="7.00636">
        <ele>1059.33</ele>
        <time>2016-03-15T16:48:48Z</time>
      </trkpt>
      <trkpt lat="48.05752" lon="7.00637">
        <ele>1059.36</ele>
        <time>2016-03-15T16:49:12Z</time>
      </trkpt>
      <trkpt lat="48.05766" lon="7.00645">
        <ele>1056.28</ele>
        <time>2016-03-15T16:49:31Z</time>
      </trkpt>
      <trkpt lat="48.05783" lon="7.00657">
        <ele>1054.35</ele>
        <time>2016-03-15T16:49:52Z</time>
      </trkpt>
      <trkpt lat="48.05796" lon="7.00666">
        <ele>1050.9</ele>
        <time>2016-03-15T16:50:08Z</time>
      </trkpt>
      <trkpt lat="48.05808" lon="7.00674">
        <ele>1047.51</ele>
        <time>2016-03-15T16:50:22Z</time>
      </trkpt>
      <trkpt lat="48.05821" lon="7.00678">
        <ele>1044.97</ele>
        <time>2016-03-15T16:50:37Z</time>
      </trkpt>
      <trkpt lat="48.05833" lon="7.00694">
        <ele>1042.39</ele>
        <time>2016-03-15T16:50:54Z</time>
      </trkpt>
      <trkpt lat="48.0584" lon="7.00708">
        <ele>1041.19</ele>
        <time>2016-03-15T16:51:12Z</time>
      </trkpt>
      <trkpt lat="48.05847" lon="7.00722">
        <ele>1042.92</ele>
        <time>2016-03-15T16:51:30Z</time>
      </trkpt>
      <trkpt lat="48.0585" lon="7.00734">
        <ele>1042.91</ele>
        <time>2016-03-15T16:51:50Z</time>
      </trkpt>
      <trkpt lat="48.05853" lon="7.00756">
        <ele>1044.53</ele>
        <time>2016-03-15T16:52:08Z</time>
      </trkpt>
      <trkpt lat="48.05849" lon="7.00764">
        <ele>1045.01</ele>
        <time>2016-03-15T16:52:29Z</time>
      </trkpt>
      <trkpt lat="48.05849" lon="7.00766">
        <ele>1045.14</ele>
        <time>2016-03-15T16:52:56Z</time>
      </trkpt>
      <trkpt lat="48.05844" lon="7.0077">
        <ele>1045.07</ele>
        <time>2016-03-15T16:53:25Z</time>
      </trkpt>
      <trkpt lat="48.05843" lon="7.00771">
        <ele>1045.3</ele>
        <time>2016-03-15T16:53:49Z</time>
      </trkpt>
      <trkpt lat="48.05851" lon="7.0079">
        <ele>1046.37</ele>
        <time>2016-03-15T16:54:09Z</time>
      </trkpt>
      <trkpt lat="48.0586" lon="7.00811">
        <ele>1048.02</ele>
        <time>2016-03-15T16:54:29Z</time>
      </trkpt>
      <trkpt lat="48.05869" lon="7.00837">
        <ele>1047.92</ele>
        <time>2016-03-15T16:54:50Z</time>
      </trkpt>
      <trkpt lat="48.05874" lon="7.00863">
        <ele>1049.69</ele>
        <time>2016-03-15T16:55:10Z</time>
      </trkpt>
      <trkpt lat="48.05884" lon="7.00887">
        <ele>1049.4</ele>
        <time>2016-03-15T16:55:31Z</time>
      </trkpt>
      <trkpt lat="48.0589" lon="7.00881">
        <ele>1050.09</ele>
        <time>2016-03-15T16:55:53Z</time>
      </trkpt>
      <trkpt lat="48.05907" lon="7.00892">
        <ele>1051.39</ele>
        <time>2016-03-15T16:56:15Z</time>
      </trkpt>
      <trkpt lat="48.05925" lon="7.00904">
        <ele>1051.85</ele>
        <time>2016-03-15T16:56:37Z</time>
      </trkpt>
      <trkpt lat="48.05941" lon="7.00919">
        <ele>1052.99</ele>
        <time>2016-03-15T16:56:58Z</time>
      </trkpt>
      <trkpt lat="48.05958" lon="7.00936">
        <ele>1053.56</ele>
        <time>2016-03-15T16:57:18Z</time>
      </trkpt>
      <trkpt lat="48.0597" lon="7.00953">
        <ele>1054.24</ele>
        <time>2016-03-15T16:57:37Z</time>
      </trkpt>
      <trkpt lat="48.05981" lon="7.00971">
        <ele>1055.4</ele>
        <time>2016-03-15T16:58:00Z</time>
      </trkpt>
      <trkpt lat="48.05997" lon="7.00992">
        <ele>1056.59</ele>
        <time>2016-03-15T16:58:24Z</time>
      </trkpt>
      <trkpt lat="48.06009" lon="7.0101">
        <ele>1057.63</ele>
        <time>2016-03-15T16:58:43Z</time>
      </trkpt>
      <trkpt lat="48.06022" lon="7.01029">
        <ele>1058.92</ele>
        <time>2016-03-15T16:59:02Z</time>
      </trkpt>
      <trkpt lat="48.06036" lon="7.01053">
        <ele>1059.04</ele>
        <time>2016-03-15T16:59:24Z</time>
      </trkpt>
      <trkpt lat="48.06044" lon="7.01077">
        <ele>1060.04</ele>
        <time>2016-03-15T16:59:45Z</time>
      </trkpt>
      <trkpt lat="48.06056" lon="7.01088">
        <ele>1061.21</ele>
        <time>2016-03-15T17:00:02Z</time>
      </trkpt>
      <trkpt lat="48.0606" lon="7.01092">
        <ele>1061.49</ele>
        <time>2016-03-15T17:00:17Z</time>
      </trkpt>
      <trkpt lat="48.06065" lon="7.01094">
        <ele>1061.41</ele>
        <time>2016-03-15T17:00:21Z</time>
      </trkpt>
      <trkpt lat="48.06071" lon="7.01099">
        <ele>1061.17</ele>
        <time>2016-03-15T17:00:50Z</time>
      </trkpt>
      <trkpt lat="48.06071" lon="7.01102">
        <ele>1061.18</ele>
        <time>2016-03-15T17:01:18Z</time>
      </trkpt>
      <trkpt lat="48.06068" lon="7.011">
        <ele>1061.18</ele>
        <time>2016-03-15T17:01:45Z</time>
      </trkpt>
      <trkpt lat="48.06072" lon="7.01103">
        <ele>1060.96</ele>
        <time>2016-03-15T17:02:07Z</time>
      </trkpt>
      <trkpt lat="48.06079" lon="7.01112">
        <ele>1062.74</ele>
        <time>2016-03-15T17:02:27Z</time>
      </trkpt>
      <trkpt lat="48.06091" lon="7.01132">
        <ele>1064.37</ele>
        <time>2016-03-15T17:02:49Z</time>
      </trkpt>
      <trkpt lat="48.06095" lon="7.01135">
        <ele>1063.47</ele>
        <time>2016-03-15T17:02:53Z</time>
      </trkpt>
      <trkpt lat="48.0611" lon="7.01153">
        <ele>1064.7</ele>
        <time>2016-03-15T17:03:15Z</time>
      </trkpt>
      <trkpt lat="48.06118" lon="7.01175">
        <ele>1065.98</ele>
        <time>2016-03-15T17:03:36Z</time>
      </trkpt>
      <trkpt lat="48.06128" lon="7.01203">
        <ele>1068.3</ele>
        <time>2016-03-15T17:03:59Z</time>
      </trkpt>
      <trkpt lat="48.06132" lon="7.01216">
        <ele>1068.75</ele>
        <time>2016-03-15T17:04:14Z</time>
      </trkpt>
      <trkpt lat="48.06149" lon="7.01229">
        <ele>1070.06</ele>
        <time>2016-03-15T17:04:35Z</time>
      </trkpt>
      <trkpt lat="48.06171" lon="7.01239">
        <ele>1070.33</ele>
        <time>2016-03-15T17:04:56Z</time>
      </trkpt>
      <trkpt lat="48.06184" lon="7.0125">
        <ele>1071.9</ele>
        <time>2016-03-15T17:05:16Z</time>
      </trkpt>
      <trkpt lat="48.06199" lon="7.01265">
        <ele>1072.94</ele>
        <time>2016-03-15T17:05:40Z</time>
      </trkpt>
      <trkpt lat="48.06209" lon="7.01281">
        <ele>1074.26</ele>
        <time>2016-03-15T17:05:59Z</time>
      </trkpt>
      <trkpt lat="48.06222" lon="7.01302">
        <ele>1074.74</ele>
        <time>2016-03-15T17:06:20Z</time>
      </trkpt>
      <trkpt lat="48.06235" lon="7.01316">
        <ele>1076.05</ele>
        <time>2016-03-15T17:06:40Z</time>
      </trkpt>
      <trkpt lat="48.06249" lon="7.01334">
        <ele>1076.8</ele>
        <time>2016-03-15T17:07:02Z</time>
      </trkpt>
      <trkpt lat="48.06262" lon="7.01354">
        <ele>1077.77</ele>
        <time>2016-03-15T17:07:22Z</time>
      </trkpt>
      <trkpt lat="48.06271" lon="7.01377">
        <ele>1078.62</ele>
        <time>2016-03-15T17:07:42Z</time>
      </trkpt>
      <trkpt lat="48.06275" lon="7.01386">
        <ele>1078.59</ele>
        <time>2016-03-15T17:07:50Z</time>
      </trkpt>
      <trkpt lat="48.0628" lon="7.01402">
        <ele>1079.51</ele>
        <time>2016-03-15T17:08:03Z</time>
      </trkpt>
      <trkpt lat="48.06287" lon="7.01424">
        <ele>1081.64</ele>
        <time>2016-03-15T17:08:24Z</time>
      </trkpt>
      <trkpt lat="48.06286" lon="7.01427">
        <ele>1081.11</ele>
        <time>2016-03-15T17:08:52Z</time>
      </trkpt>
      <trkpt lat="48.06288" lon="7.01445">
        <ele>1082.07</ele>
        <time>2016-03-15T17:09:18Z</time>
      </trkpt>
      <trkpt lat="48.06297" lon="7.01462">
        <ele>1083.23</ele>
        <time>2016-03-15T17:09:37Z</time>
      </trkpt>
      <trkpt lat="48.06301" lon="7.01483">
        <ele>1085.64</ele>
        <time>2016-03-15T17:09:58Z</time>
      </trkpt>
      <trkpt lat="48.06308" lon="7.01507">
        <ele>1087.7</ele>
        <time>2016-03-15T17:10:17Z</time>
      </trkpt>
      <trkpt lat="48.06316" lon="7.01531">
        <ele>1089.43</ele>
        <time>2016-03-15T17:10:39Z</time>
      </trkpt>
      <trkpt lat="48.06322" lon="7.01556">
        <ele>1091.17</ele>
        <time>2016-03-15T17:11:00Z</time>
      </trkpt>
      <trkpt lat="48.06331" lon="7.01567">
        <ele>1093.03</ele>
        <time>2016-03-15T17:11:15Z</time>
      </trkpt>
      <trkpt lat="48.06336" lon="7.01573">
        <ele>1093.43</ele>
        <time>2016-03-15T17:11:33Z</time>
      </trkpt>
      <trkpt lat="48.06336" lon="7.01576">
        <ele>1092.74</ele>
        <time>2016-03-15T17:11:56Z</time>
      </trkpt>
      <trkpt lat="48.06335" lon="7.01574">
        <ele>1092.53</ele>
        <time>2016-03-15T17:12:10Z</time>
      </trkpt>
      <trkpt lat="48.06335" lon="7.01584">
        <ele>1093.91</ele>
        <time>2016-03-15T17:12:34Z</time>
      </trkpt>
      <trkpt lat="48.06343" lon="7.01609">
        <ele>1095.69</ele>
        <time>2016-03-15T17:12:58Z</time>
      </trkpt>
      <trkpt lat="48.06354" lon="7.01632">
        <ele>1099.09</ele>
        <time>2016-03-15T17:13:22Z</time>
      </trkpt>
      <trkpt lat="48.06363" lon="7.01651">
        <ele>1101.27</ele>
        <time>2016-03-15T17:13:43Z</time>
      </trkpt>
      <trkpt lat="48.06372" lon="7.01675">
        <ele>1103.46</ele>
        <time>2016-03-15T17:14:06Z</time>
      </trkpt>
      <trkpt lat="48.06377" lon="7.01701">
        <ele>1106.12</ele>
        <time>2016-03-15T17:14:29Z</time>
      </trkpt>
      <trkpt lat="48.06383" lon="7.01719">
        <ele>1107.1</ele>
        <time>2016-03-15T17:14:48Z</time>
      </trkpt>
      <trkpt lat="48.06381" lon="7.01739">
        <ele>1109.5</ele>
        <time>2016-03-15T17:15:10Z</time>
      </trkpt>
      <trkpt lat="48.06382" lon="7.01761">
        <ele>1112.72</ele>
        <time>2016-03-15T17:15:31Z</time>
      </trkpt>
      <trkpt lat="48.06377" lon="7.01786">
        <ele>1114.12</ele>
        <time>2016-03-15T17:15:52Z</time>
      </trkpt>
      <trkpt lat="48.06372" lon="7.01805">
        <ele>1117.48</ele>
        <time>2016-03-15T17:16:12Z</time>
      </trkpt>
      <trkpt lat="48.06369" lon="7.01825">
        <ele>1118.57</ele>
        <time>2016-03-15T17:16:34Z</time>
      </trkpt>
      <trkpt lat="48.06367" lon="7.0184">
        <ele>1120.22</ele>
        <time>2016-03-15T17:16:57Z</time>
      </trkpt>
      <trkpt lat="48.06367" lon="7.01841">
        <ele>1120.03</ele>
        <time>2016-03-15T17:17:00Z</time>
      </trkpt>
      <trkpt lat="48.06359" lon="7.01847">
        <ele>1120.28</ele>
        <time>2016-03-15T17:17:31Z</time>
      </trkpt>
      <trkpt lat="48.06358" lon="7.01846">
        <ele>1119.56</ele>
        <time>2016-03-15T17:18:02Z</time>
      </trkpt>
      <trkpt lat="48.06359" lon="7.01852">
        <ele>1120.03</ele>
        <time>2016-03-15T17:18:32Z</time>
      </trkpt>
      <trkpt lat="48.06358" lon="7.01858">
        <ele>1120.53</ele>
        <time>2016-03-15T17:19:01Z</time>
      </trkpt>
      <trkpt lat="48.06356" lon="7.01865">
        <ele>1121.29</ele>
        <time>2016-03-15T17:19:20Z</time>
      </trkpt>
      <trkpt lat="48.06351" lon="7.01877">
        <ele>1123.13</ele>
        <time>2016-03-15T17:19:34Z</time>
      </trkpt>
      <trkpt lat="48.0634" lon="7.01893">
        <ele>1124.68</ele>
        <time>2016-03-15T17:19:52Z</time>
      </trkpt>
      <trkpt lat="48.06334" lon="7.01906">
        <ele>1126.1</ele>
        <time>2016-03-15T17:20:06Z</time>
      </trkpt>
      <trkpt lat="48.06325" lon="7.01926">
        <ele>1128.78</ele>
        <time>2016-03-15T17:20:26Z</time>
      </trkpt>
      <trkpt lat="48.06315" lon="7.01945">
        <ele>1130.85</ele>
        <time>2016-03-15T17:20:47Z</time>
      </trkpt>
      <trkpt lat="48.06308" lon="7.01961">
        <ele>1133.84</ele>
        <time>2016-03-15T17:21:06Z</time>
      </trkpt>
      <trkpt lat="48.06293" lon="7.01985">
        <ele>1135.93</ele>
        <time>2016-03-15T17:21:28Z</time>
      </trkpt>
      <trkpt lat="48.06284" lon="7.02002">
        <ele>1137.94</ele>
        <time>2016-03-15T17:21:47Z</time>
      </trkpt>
      <trkpt lat="48.06276" lon="7.0201">
        <ele>1138.89</ele>
        <time>2016-03-15T17:22:04Z</time>
      </trkpt>
      <trkpt lat="48.06275" lon="7.02011">
        <ele>1138.26</ele>
        <time>2016-03-15T17:22:28Z</time>
      </trkpt>
      <trkpt lat="48.06274" lon="7.02011">
        <ele>1138.67</ele>
        <time>2016-03-15T17:23:00Z</time>
      </trkpt>
      <trkpt lat="48.06274" lon="7.02011">
        <ele>1138.51</ele>
        <time>2016-03-15T17:23:23Z</time>
      </trkpt>
      <trkpt lat="48.06277" lon="7.02007">
        <ele>1138.7</ele>
        <time>2016-03-15T17:23:39Z</time>
      </trkpt>
      <trkpt lat="48.06277" lon="7.02004">
        <ele>1138.98</ele>
        <time>2016-03-15T17:23:59Z</time>
      </trkpt>
      <trkpt lat="48.06276" lon="7.02003">
        <ele>1138.96</ele>
        <time>2016-03-15T17:24:22Z</time>
      </trkpt>
      <trkpt lat="48.06276" lon="7.02002">
        <ele>1139.5</ele>
        <time>2016-03-15T17:24:41Z</time>
      </trkpt>
      <trkpt lat="48.06275" lon="7.02007">
        <ele>1138.92</ele>
        <time>2016-03-15T17:25:01Z</time>
      </trkpt>
      <trkpt lat="48.06277" lon="7.02008">
        <ele>1138.9</ele>
        <time>2016-03-15T17:25:28Z</time>
      </trkpt>
      <trkpt lat="48.06272" lon="7.02017">
        <ele>1138.44</ele>
        <time>2016-03-15T17:25:42Z</time>
      </trkpt>
      <trkpt lat="48.06262" lon="7.0203">
        <ele>1139.03</ele>
        <time>2016-03-15T17:25:58Z</time>
      </trkpt>
      <trkpt lat="48.0626" lon="7.02033">
        <ele>1138.24</ele>
        <time>2016-03-15T17:26:02Z</time>
      </trkpt>
      <trkpt lat="48.06256" lon="7.0204">
        <ele>1138.4</ele>
        <time>2016-03-15T17:26:19Z</time>
      </trkpt>
      <trkpt lat="48.06255" lon="7.0204">
        <ele>1138.31</ele>
        <time>2016-03-15T17:26:38Z</time>
      </trkpt>
      <trkpt lat="48.06253" lon="7.02041">
        <ele>1137.83</ele>
        <time>2016-03-15T17:27:19Z</time>
      </trkpt>
      <trkpt lat="48.0625" lon="7.02051">
        <ele>1138.36</ele>
        <time>2016-03-15T17:27:37Z</time>
      </trkpt>
      <trkpt lat="48.06246" lon="7.02064">
        <ele>1137.84</ele>
        <time>2016-03-15T17:27:48Z</time>
      </trkpt>
      <trkpt lat="48.06249" lon="7.02079">
        <ele>1137.95</ele>
        <time>2016-03-15T17:28:04Z</time>
      </trkpt>
      <trkpt lat="48.06246" lon="7.02084">
        <ele>1138.03</ele>
        <time>2016-03-15T17:28:10Z</time>
      </trkpt>
      <trkpt lat="48.06245" lon="7.02087">
        <ele>1138.4</ele>
        <time>2016-03-15T17:28:25Z</time>
      </trkpt>
      <trkpt lat="48.0625" lon="7.0209">
        <ele>1137.92</ele>
        <time>2016-03-15T17:28:44Z</time>
      </trkpt>
      <trkpt lat="48.06258" lon="7.02094">
        <ele>1138.28</ele>
        <time>2016-03-15T17:28:56Z</time>
      </trkpt>
      <trkpt lat="48.06258" lon="7.02092">
        <ele>1138.19</ele>
        <time>2016-03-15T17:29:18Z</time>
      </trkpt>
      <trkpt lat="48.06261" lon="7.02094">
        <ele>1137.57</ele>
        <time>2016-03-15T17:29:47Z</time>
      </trkpt>
      <trkpt lat="48.06262" lon="7.02097">
        <ele>1137.48</ele>
        <time>2016-03-15T17:30:12Z</time>
      </trkpt>
      <trkpt lat="48.06264" lon="7.02099">
        <ele>1138.68</ele>
        <time>2016-03-15T17:30:34Z</time>
      </trkpt>
      <trkpt lat="48.06273" lon="7.02101">
        <ele>1139.38</ele>
        <time>2016-03-15T17:30:46Z</time>
      </trkpt>
      <trkpt lat="48.06285" lon="7.02102">
        <ele>1139.04</ele>
        <time>2016-03-15T17:31:04Z</time>
      </trkpt>
      <trkpt lat="48.06299" lon="7.02113">
        <ele>1139.53</ele>
        <time>2016-03-15T17:31:24Z</time>
      </trkpt>
      <trkpt lat="48.06308" lon="7.02129">
        <ele>1140.79</ele>
        <time>2016-03-15T17:31:43Z</time>
      </trkpt>
      <trkpt lat="48.06319" lon="7.02144">
        <ele>1139.57</ele>
        <time>2016-03-15T17:32:02Z</time>
      </trkpt>
      <trkpt lat="48.06322" lon="7.02156">
        <ele>1140.95</ele>
        <time>2016-03-15T17:32:14Z</time>
      </trkpt>
      <trkpt lat="48.06319" lon="7.02164">
        <ele>1140.33</ele>
        <time>2016-03-15T17:32:27Z</time>
      </trkpt>
      <trkpt lat="48.06321" lon="7.02166">
        <ele>1140.9</ele>
        <time>2016-03-15T17:32:45Z</time>
      </trkpt>
      <trkpt lat="48.06333" lon="7.02179">
        <ele>1139.51</ele>
        <time>2016-03-15T17:33:02Z</time>
      </trkpt>
      <trkpt lat="48.06334" lon="7.02185">
        <ele>1139.14</ele>
        <time>2016-03-15T17:33:07Z</time>
      </trkpt>
      <trkpt lat="48.06335" lon="7.02188">
        <ele>1139.43</ele>
        <time>2016-03-15T17:33:09Z</time>
      </trkpt>
      <trkpt lat="48.06345" lon="7.02208">
        <ele>1139.39</ele>
        <time>2016-03-15T17:33:27Z</time>
      </trkpt>
      <trkpt lat="48.0636" lon="7.02223">
        <ele>1140.71</ele>
        <time>2016-03-15T17:33:45Z</time>
      </trkpt>
      <trkpt lat="48.06372" lon="7.02237">
        <ele>1139.87</ele>
        <time>2016-03-15T17:34:00Z</time>
      </trkpt>
      <trkpt lat="48.06372" lon="7.0224">
        <ele>1139.67</ele>
        <time>2016-03-15T17:34:02Z</time>
      </trkpt>
      <trkpt lat="48.06371" lon="7.02247">
        <ele>1139.69</ele>
        <time>2016-03-15T17:34:07Z</time>
      </trkpt>
      <trkpt lat="48.06353" lon="7.02248">
        <ele>1141.21</ele>
        <time>2016-03-15T17:34:23Z</time>
      </trkpt>
      <trkpt lat="48.06337" lon="7.0224">
        <ele>1142.97</ele>
        <time>2016-03-15T17:34:42Z</time>
      </trkpt>
      <trkpt lat="48.06333" lon="7.02251">
        <ele>1144.85</ele>
        <time>2016-03-15T17:34:59Z</time>
      </trkpt>
      <trkpt lat="48.06336" lon="7.02259">
        <ele>1145.38</ele>
        <time>2016-03-15T17:35:12Z</time>
      </trkpt>
      <trkpt lat="48.06336" lon="7.0227">
        <ele>1146.35</ele>
        <time>2016-03-15T17:35:27Z</time>
      </trkpt>
      <trkpt lat="48.06333" lon="7.02286">
        <ele>1148.06</ele>
        <time>2016-03-15T17:35:43Z</time>
      </trkpt>
      <trkpt lat="48.06333" lon="7.0229">
        <ele>1148.67</ele>
        <time>2016-03-15T17:35:46Z</time>
      </trkpt>
      <trkpt lat="48.06326" lon="7.02297">
        <ele>1150.91</ele>
        <time>2016-03-15T17:36:03Z</time>
      </trkpt>
      <trkpt lat="48.06317" lon="7.02311">
        <ele>1153.62</ele>
        <time>2016-03-15T17:36:24Z</time>
      </trkpt>
      <trkpt lat="48.06315" lon="7.02318">
        <ele>1154.86</ele>
        <time>2016-03-15T17:36:45Z</time>
      </trkpt>
      <trkpt lat="48.06317" lon="7.02322">
        <ele>1155.44</ele>
        <time>2016-03-15T17:37:08Z</time>
      </trkpt>
      <trkpt lat="48.06315" lon="7.02317">
        <ele>1155.16</ele>
        <time>2016-03-15T17:37:29Z</time>
      </trkpt>
      <trkpt lat="48.06312" lon="7.02318">
        <ele>1155.3</ele>
        <time>2016-03-15T17:37:53Z</time>
      </trkpt>
      <trkpt lat="48.06311" lon="7.02318">
        <ele>1155.08</ele>
        <time>2016-03-15T17:38:32Z</time>
      </trkpt>
      <trkpt lat="48.06309" lon="7.02317">
        <ele>1154.9</ele>
        <time>2016-03-15T17:39:03Z</time>
      </trkpt>
      <trkpt lat="48.06309" lon="7.02318">
        <ele>1154.77</ele>
        <time>2016-03-15T17:39:31Z</time>
      </trkpt>
      <trkpt lat="48.06309" lon="7.02322">
        <ele>1154.69</ele>
        <time>2016-03-15T17:39:54Z</time>
      </trkpt>
      <trkpt lat="48.06308" lon="7.02323">
        <ele>1154.03</ele>
        <time>2016-03-15T17:40:17Z</time>
      </trkpt>
      <trkpt lat="48.06312" lon="7.02322">
        <ele>1154.37</ele>
        <time>2016-03-15T17:40:43Z</time>
      </trkpt>
      <trkpt lat="48.06313" lon="7.02322">
        <ele>1154.34</ele>
        <time>2016-03-15T17:41:09Z</time>
      </trkpt>
      <trkpt lat="48.0631" lon="7.02324">
        <ele>1154.97</ele>
        <time>2016-03-15T17:41:34Z</time>
      </trkpt>
      <trkpt lat="48.06311" lon="7.02323">
        <ele>1154.33</ele>
        <time>2016-03-15T17:41:59Z</time>
      </trkpt>
      <trkpt lat="48.063" lon="7.02329">
        <ele>1156.7</ele>
        <time>2016-03-15T17:42:18Z</time>
      </trkpt>
      <trkpt lat="48.06284" lon="7.02336">
        <ele>1158.13</ele>
        <time>2016-03-15T17:42:37Z</time>
      </trkpt>
      <trkpt lat="48.06268" lon="7.02344">
        <ele>1160.23</ele>
        <time>2016-03-15T17:42:56Z</time>
      </trkpt>
      <trkpt lat="48.06251" lon="7.02354">
        <ele>1160.69</ele>
        <time>2016-03-15T17:43:16Z</time>
      </trkpt>
      <trkpt lat="48.06235" lon="7.02363">
        <ele>1162.49</ele>
        <time>2016-03-15T17:43:35Z</time>
      </trkpt>
      <trkpt lat="48.06224" lon="7.02383">
        <ele>1163.16</ele>
        <time>2016-03-15T17:43:56Z</time>
      </trkpt>
      <trkpt lat="48.0622" lon="7.02402">
        <ele>1166.41</ele>
        <time>2016-03-15T17:44:14Z</time>
      </trkpt>
      <trkpt lat="48.06212" lon="7.02413">
        <ele>1167.55</ele>
        <time>2016-03-15T17:44:29Z</time>
      </trkpt>
      <trkpt lat="48.06192" lon="7.02411">
        <ele>1167.06</ele>
        <time>2016-03-15T17:44:49Z</time>
      </trkpt>
      <trkpt lat="48.06177" lon="7.02424">
        <ele>1168.04</ele>
        <time>2016-03-15T17:45:11Z</time>
      </trkpt>
      <trkpt lat="48.06168" lon="7.02431">
        <ele>1171.68</ele>
        <time>2016-03-15T17:45:25Z</time>
      </trkpt>
      <trkpt lat="48.06159" lon="7.0244">
        <ele>1172.91</ele>
        <time>2016-03-15T17:45:44Z</time>
      </trkpt>
      <trkpt lat="48.06151" lon="7.02456">
        <ele>1175.09</ele>
        <time>2016-03-15T17:46:06Z</time>
      </trkpt>
      <trkpt lat="48.06145" lon="7.02472">
        <ele>1176.87</ele>
        <time>2016-03-15T17:46:28Z</time>
      </trkpt>
      <trkpt lat="48.06131" lon="7.02491">
        <ele>1179.68</ele>
        <time>2016-03-15T17:46:52Z</time>
      </trkpt>
      <trkpt lat="48.06115" lon="7.02498">
        <ele>1180.44</ele>
        <time>2016-03-15T17:47:15Z</time>
      </trkpt>
      <trkpt lat="48.06095" lon="7.02502">
        <ele>1181.77</ele>
        <time>2016-03-15T17:47:39Z</time>
      </trkpt>
      <trkpt lat="48.06078" lon="7.02495">
        <ele>1184.91</ele>
        <time>2016-03-15T17:48:02Z</time>
      </trkpt>
      <trkpt lat="48.06064" lon="7.02477">
        <ele>1188.02</ele>
        <time>2016-03-15T17:48:25Z</time>
      </trkpt>
      <trkpt lat="48.06055" lon="7.02462">
        <ele>1189.9</ele>
        <time>2016-03-15T17:48:46Z</time>
      </trkpt>
      <trkpt lat="48.06054" lon="7.02447">
        <ele>1192.33</ele>
        <time>2016-03-15T17:49:05Z</time>
      </trkpt>
      <trkpt lat="48.06043" lon="7.02431">
        <ele>1193.62</ele>
        <time>2016-03-15T17:49:28Z</time>
      </trkpt>
      <trkpt lat="48.06034" lon="7.02414">
        <ele>1195.77</ele>
        <time>2016-03-15T17:49:49Z</time>
      </trkpt>
      <trkpt lat="48.06025" lon="7.02396">
        <ele>1196.68</ele>
        <time>2016-03-15T17:50:08Z</time>
      </trkpt>
      <trkpt lat="48.06026" lon="7.02392">
        <ele>1197.33</ele>
        <time>2016-03-15T17:50:31Z</time>
      </trkpt>
      <trkpt lat="48.06025" lon="7.02391">
        <ele>1198.38</ele>
        <time>2016-03-15T17:50:57Z</time>
      </trkpt>
      <trkpt lat="48.06009" lon="7.02386">
        <ele>1200.22</ele>
        <time>2016-03-15T17:51:10Z</time>
      </trkpt>
      <trkpt lat="48.05998" lon="7.02382">
        <ele>1201.3</ele>
        <time>2016-03-15T17:51:24Z</time>
      </trkpt>
      <trkpt lat="48.05984" lon="7.02378">
        <ele>1201.64</ele>
        <time>2016-03-15T17:51:45Z</time>
      </trkpt>
      <trkpt lat="48.05971" lon="7.02371">
        <ele>1204.7</ele>
        <time>2016-03-15T17:52:02Z</time>
      </trkpt>
      <trkpt lat="48.05954" lon="7.02365">
        <ele>1204.22</ele>
        <time>2016-03-15T17:52:23Z</time>
      </trkpt>
      <trkpt lat="48.05936" lon="7.02357">
        <ele>1206.41</ele>
        <time>2016-03-15T17:52:45Z</time>
      </trkpt>
      <trkpt lat="48.05918" lon="7.02347">
        <ele>1206.61</ele>
        <time>2016-03-15T17:53:04Z</time>
      </trkpt>
      <trkpt lat="48.05914" lon="7.02345">
        <ele>1208.15</ele>
        <time>2016-03-15T17:53:09Z</time>
      </trkpt>
      <trkpt lat="48.05895" lon="7.02331">
        <ele>1208.51</ele>
        <time>2016-03-15T17:53:34Z</time>
      </trkpt>
      <trkpt lat="48.05891" lon="7.02327">
        <ele>1208.93</ele>
        <time>2016-03-15T17:53:39Z</time>
      </trkpt>
      <trkpt lat="48.05875" lon="7.02315">
        <ele>1208.9</ele>
        <time>2016-03-15T17:53:57Z</time>
      </trkpt>
      <trkpt lat="48.05859" lon="7.02299">
        <ele>1209.95</ele>
        <time>2016-03-15T17:54:16Z</time>
      </trkpt>
      <trkpt lat="48.05844" lon="7.02289">
        <ele>1211.59</ele>
        <time>2016-03-15T17:54:38Z</time>
      </trkpt>
      <trkpt lat="48.05829" lon="7.02284">
        <ele>1212.73</ele>
        <time>2016-03-15T17:54:59Z</time>
      </trkpt>
      <trkpt lat="48.05813" lon="7.02278">
        <ele>1215.36</ele>
        <time>2016-03-15T17:55:20Z</time>
      </trkpt>
      <trkpt lat="48.05804" lon="7.02274">
        <ele>1217.06</ele>
        <time>2016-03-15T17:55:40Z</time>
      </trkpt>
      <trkpt lat="48.05803" lon="7.02274">
        <ele>1216.78</ele>
        <time>2016-03-15T17:56:05Z</time>
      </trkpt>
      <trkpt lat="48.05805" lon="7.0227">
        <ele>1217.86</ele>
        <time>2016-03-15T17:56:25Z</time>
      </trkpt>
      <trkpt lat="48.05803" lon="7.02265">
        <ele>1219.2</ele>
        <time>2016-03-15T17:56:44Z</time>
      </trkpt>
      <trkpt lat="48.05802" lon="7.02271">
        <ele>1218.34</ele>
        <time>2016-03-15T17:57:10Z</time>
      </trkpt>
      <trkpt lat="48.05803" lon="7.02271">
        <ele>1217.68</ele>
        <time>2016-03-15T17:57:36Z</time>
      </trkpt>
      <trkpt lat="48.05811" lon="7.02273">
        <ele>1216.34</ele>
        <time>2016-03-15T17:57:57Z</time>
      </trkpt>
      <trkpt lat="48.05807" lon="7.02264">
        <ele>1217.04</ele>
        <time>2016-03-15T17:58:22Z</time>
      </trkpt>
      <trkpt lat="48.05806" lon="7.02268">
        <ele>1217.28</ele>
        <time>2016-03-15T17:58:42Z</time>
      </trkpt>
      <trkpt lat="48.05808" lon="7.0227">
        <ele>1217.18</ele>
        <time>2016-03-15T17:59:04Z</time>
      </trkpt>
      <trkpt lat="48.05808" lon="7.0227">
        <ele>1217.07</ele>
        <time>2016-03-15T17:59:24Z</time>
      </trkpt>
      <trkpt lat="48.05807" lon="7.02265">
        <ele>1217.54</ele>
        <time>2016-03-15T17:59:46Z</time>
      </trkpt>
      <trkpt lat="48.05804" lon="7.02268">
        <ele>1216.86</ele>
        <time>2016-03-15T18:00:14Z</time>
      </trkpt>
      <trkpt lat="48.05804" lon="7.02266">
        <ele>1217.96</ele>
        <time>2016-03-15T18:00:39Z</time>
      </trkpt>
      <trkpt lat="48.05803" lon="7.02265">
        <ele>1217.46</ele>
        <time>2016-03-15T18:00:57Z</time>
      </trkpt>
      <trkpt lat="48.05804" lon="7.02269">
        <ele>1217.11</ele>
        <time>2016-03-15T18:01:19Z</time>
      </trkpt>
      <trkpt lat="48.058" lon="7.02272">
        <ele>1217.71</ele>
        <time>2016-03-15T18:01:41Z</time>
      </trkpt>
      <trkpt lat="48.058" lon="7.02268">
        <ele>1217.5</ele>
        <time>2016-03-15T18:02:03Z</time>
      </trkpt>
      <trkpt lat="48.05802" lon="7.02264">
        <ele>1217.48</ele>
        <time>2016-03-15T18:02:31Z</time>
      </trkpt>
      <trkpt lat="48.058" lon="7.02263">
        <ele>1216.89</ele>
        <time>2016-03-15T18:02:50Z</time>
      </trkpt>
      <trkpt lat="48.05801" lon="7.0226">
        <ele>1216.62</ele>
        <time>2016-03-15T18:03:10Z</time>
      </trkpt>
      <trkpt lat="48.05802" lon="7.02267">
        <ele>1218.03</ele>
        <time>2016-03-15T18:03:32Z</time>
      </trkpt>
      <trkpt lat="48.05803" lon="7.02268">
        <ele>1216.6</ele>
        <time>2016-03-15T18:03:53Z</time>
      </trkpt>
      <trkpt lat="48.05802" lon="7.0226">
        <ele>1216.92</ele>
        <time>2016-03-15T18:04:20Z</time>
      </trkpt>
      <trkpt lat="48.05802" lon="7.02258">
        <ele>1217.15</ele>
        <time>2016-03-15T18:04:48Z</time>
      </trkpt>
      <trkpt lat="48.05802" lon="7.02258">
        <ele>1214.69</ele>
        <time>2016-03-15T18:04:51Z</time>
      </trkpt>
      <trkpt lat="48.05802" lon="7.02258">
        <ele>1216.35</ele>
        <time>2016-03-15T18:04:53Z</time>
      </trkpt>
      <trkpt lat="48.05802" lon="7.02258">
        <ele>1220.51</ele>
        <time>2016-03-15T18:04:54Z</time>
      </trkpt>
      <trkpt lat="48.05801" lon="7.02259">
        <ele>1217.46</ele>
        <time>2016-03-15T18:04:55Z</time>
      </trkpt>
      <trkpt lat="48.05801" lon="7.0226">
        <ele>1216.83</ele>
        <time>2016-03-15T18:04:57Z</time>
      </trkpt>
      <trkpt lat="48.05799" lon="7.02262">
        <ele>1216.99</ele>
        <time>2016-03-15T18:05:26Z</time>
      </trkpt>
      <trkpt lat="48.058" lon="7.02267">
        <ele>1217.42</ele>
        <time>2016-03-15T18:05:54Z</time>
      </trkpt>
      <trkpt lat="48.05803" lon="7.02267">
        <ele>1216.43</ele>
        <time>2016-03-15T18:06:21Z</time>
      </trkpt>
      <trkpt lat="48.058" lon="7.02266">
        <ele>1217.91</ele>
        <time>2016-03-15T18:06:46Z</time>
      </trkpt>
      <trkpt lat="48.05801" lon="7.02266">
        <ele>1217.51</ele>
        <time>2016-03-15T18:07:08Z</time>
      </trkpt>
      <trkpt lat="48.05803" lon="7.02265">
        <ele>1217.12</ele>
        <time>2016-03-15T18:07:31Z</time>
      </trkpt>
      <trkpt lat="48.05803" lon="7.02267">
        <ele>1216.34</ele>
        <time>2016-03-15T18:07:57Z</time>
      </trkpt>
      <trkpt lat="48.05804" lon="7.02268">
        <ele>1216.14</ele>
        <time>2016-03-15T18:08:25Z</time>
      </trkpt>
      <trkpt lat="48.05803" lon="7.02266">
        <ele>1216.43</ele>
        <time>2016-03-15T18:08:44Z</time>
      </trkpt>
      <trkpt lat="48.05801" lon="7.02268">
        <ele>1216.76</ele>
        <time>2016-03-15T18:09:10Z</time>
      </trkpt>
      <trkpt lat="48.05799" lon="7.02268">
        <ele>1215.83</ele>
        <time>2016-03-15T18:09:32Z</time>
      </trkpt>
      <trkpt lat="48.05804" lon="7.02263">
        <ele>1216.38</ele>
        <time>2016-03-15T18:09:53Z</time>
      </trkpt>
      <trkpt lat="48.0581" lon="7.02267">
        <ele>1216.21</ele>
        <time>2016-03-15T18:10:18Z</time>
      </trkpt>
      <trkpt lat="48.05811" lon="7.0227">
        <ele>1215.12</ele>
        <time>2016-03-15T18:10:38Z</time>
      </trkpt>
      <trkpt lat="48.05811" lon="7.02268">
        <ele>1215.02</ele>
        <time>2016-03-15T18:11:04Z</time>
      </trkpt>
      <trkpt lat="48.05808" lon="7.02264">
        <ele>1215.67</ele>
        <time>2016-03-15T18:11:26Z</time>
      </trkpt>
      <trkpt lat="48.05808" lon="7.02267">
        <ele>1215.75</ele>
        <time>2016-03-15T18:11:49Z</time>
      </trkpt>
      <trkpt lat="48.05809" lon="7.02274">
        <ele>1214.84</ele>
        <time>2016-03-15T18:12:14Z</time>
      </trkpt>
      <trkpt lat="48.05809" lon="7.02277">
        <ele>1215.2</ele>
        <time>2016-03-15T18:12:38Z</time>
      </trkpt>
      <trkpt lat="48.05807" lon="7.0228">
        <ele>1214.8</ele>
        <time>2016-03-15T18:13:03Z</time>
      </trkpt>
      <trkpt lat="48.05808" lon="7.02278">
        <ele>1215.02</ele>
        <time>2016-03-15T18:13:27Z</time>
      </trkpt>
      <trkpt lat="48.05803" lon="7.02284">
        <ele>1215.48</ele>
        <time>2016-03-15T18:13:40Z</time>
      </trkpt>
      <trkpt lat="48.05794" lon="7.0229">
        <ele>1216.74</ele>
        <time>2016-03-15T18:13:54Z</time>
      </trkpt>
      <trkpt lat="48.05779" lon="7.02298">
        <ele>1219.02</ele>
        <time>2016-03-15T18:14:11Z</time>
      </trkpt>
      <trkpt lat="48.05766" lon="7.02305">
        <ele>1222.06</ele>
        <time>2016-03-15T18:14:28Z</time>
      </trkpt>
      <trkpt lat="48.05753" lon="7.02314">
        <ele>1223.57</ele>
        <time>2016-03-15T18:14:47Z</time>
      </trkpt>
      <trkpt lat="48.05738" lon="7.02322">
        <ele>1226.85</ele>
        <time>2016-03-15T18:15:08Z</time>
      </trkpt>
      <trkpt lat="48.05725" lon="7.02329">
        <ele>1228.97</ele>
        <time>2016-03-15T18:15:32Z</time>
      </trkpt>
      <trkpt lat="48.05717" lon="7.02332">
        <ele>1232.05</ele>
        <time>2016-03-15T18:15:44Z</time>
      </trkpt>
      <trkpt lat="48.05704" lon="7.02338">
        <ele>1234.19</ele>
        <time>2016-03-15T18:16:06Z</time>
      </trkpt>
      <trkpt lat="48.0569" lon="7.02345">
        <ele>1236.45</ele>
        <time>2016-03-15T18:16:25Z</time>
      </trkpt>
      <trkpt lat="48.05675" lon="7.02354">
        <ele>1237.38</ele>
        <time>2016-03-15T18:16:47Z</time>
      </trkpt>
      <trkpt lat="48.05662" lon="7.02361">
        <ele>1239.35</ele>
        <time>2016-03-15T18:17:06Z</time>
      </trkpt>
      <trkpt lat="48.05648" lon="7.02367">
        <ele>1239.69</ele>
        <time>2016-03-15T18:17:26Z</time>
      </trkpt>
      <trkpt lat="48.0563" lon="7.02377">
        <ele>1241.15</ele>
        <time>2016-03-15T18:17:45Z</time>
      </trkpt>
      <trkpt lat="48.05615" lon="7.02387">
        <ele>1243.52</ele>
        <time>2016-03-15T18:18:06Z</time>
      </trkpt>
      <trkpt lat="48.05614" lon="7.02388">
        <ele>1242.88</ele>
        <time>2016-03-15T18:18:07Z</time>
      </trkpt>
      <trkpt lat="48.05613" lon="7.02394">
        <ele>1242.78</ele>
        <time>2016-03-15T18:18:10Z</time>
      </trkpt>
      <trkpt lat="48.05608" lon="7.02403">
        <ele>1243.13</ele>
        <time>2016-03-15T18:18:29Z</time>
      </trkpt>
      <trkpt lat="48.05606" lon="7.02405">
        <ele>1243.13</ele>
        <time>2016-03-15T18:18:52Z</time>
      </trkpt>
      <trkpt lat="48.05604" lon="7.02402">
        <ele>1243.27</ele>
        <time>2016-03-15T18:19:16Z</time>
      </trkpt>
      <trkpt lat="48.05602" lon="7.02407">
        <ele>1242.59</ele>
        <time>2016-03-15T18:19:37Z</time>
      </trkpt>
      <trkpt lat="48.05593" lon="7.02427">
        <ele>1244.49</ele>
        <time>2016-03-15T18:19:58Z</time>
      </trkpt>
      <trkpt lat="48.05584" lon="7.02441">
        <ele>1243.87</ele>
        <time>2016-03-15T18:20:11Z</time>
      </trkpt>
      <trkpt lat="48.05583" lon="7.02445">
        <ele>1241.31</ele>
        <time>2016-03-15T18:20:14Z</time>
      </trkpt>
      <trkpt lat="48.05582" lon="7.02447">
        <ele>1243.56</ele>
        <time>2016-03-15T18:20:16Z</time>
      </trkpt>
      <trkpt lat="48.05566" lon="7.02466">
        <ele>1242.92</ele>
        <time>2016-03-15T18:20:35Z</time>
      </trkpt>
      <trkpt lat="48.05566" lon="7.02477">
        <ele>1242.13</ele>
        <time>2016-03-15T18:20:49Z</time>
      </trkpt>
      <trkpt lat="48.05573" lon="7.02491">
        <ele>1242.16</ele>
        <time>2016-03-15T18:21:05Z</time>
      </trkpt>
      <trkpt lat="48.05572" lon="7.02504">
        <ele>1242.08</ele>
        <time>2016-03-15T18:21:17Z</time>
      </trkpt>
      <trkpt lat="48.05573" lon="7.02509">
        <ele>1240.52</ele>
        <time>2016-03-15T18:21:20Z</time>
      </trkpt>
      <trkpt lat="48.05574" lon="7.02519">
        <ele>1239.17</ele>
        <time>2016-03-15T18:21:27Z</time>
      </trkpt>
      <trkpt lat="48.05581" lon="7.02526">
        <ele>1239.24</ele>
        <time>2016-03-15T18:21:43Z</time>
      </trkpt>
      <trkpt lat="48.05588" lon="7.02532">
        <ele>1237.81</ele>
        <time>2016-03-15T18:21:59Z</time>
      </trkpt>
      <trkpt lat="48.05591" lon="7.02534">
        <ele>1238.73</ele>
        <time>2016-03-15T18:22:20Z</time>
      </trkpt>
      <trkpt lat="48.05603" lon="7.02527">
        <ele>1239.86</ele>
        <time>2016-03-15T18:22:40Z</time>
      </trkpt>
      <trkpt lat="48.05603" lon="7.02527">
        <ele>1238.12</ele>
        <time>2016-03-15T18:22:43Z</time>
      </trkpt>
      <trkpt lat="48.05603" lon="7.02526">
        <ele>1240.08</ele>
        <time>2016-03-15T18:22:55Z</time>
      </trkpt>
      <trkpt lat="48.05605" lon="7.02525">
        <ele>1239.99</ele>
        <time>2016-03-15T18:23:17Z</time>
      </trkpt>
      <trkpt lat="48.05606" lon="7.02523">
        <ele>1238.49</ele>
        <time>2016-03-15T18:23:36Z</time>
      </trkpt>
      <trkpt lat="48.0561" lon="7.02524">
        <ele>1238.75</ele>
        <time>2016-03-15T18:24:04Z</time>
      </trkpt>
      <trkpt lat="48.0561" lon="7.02524">
        <ele>1238.63</ele>
        <time>2016-03-15T18:24:31Z</time>
      </trkpt>
      <trkpt lat="48.05611" lon="7.02524">
        <ele>1238.45</ele>
        <time>2016-03-15T18:25:07Z</time>
      </trkpt>
      <trkpt lat="48.0561" lon="7.02523">
        <ele>1238.29</ele>
        <time>2016-03-15T18:25:40Z</time>
      </trkpt>
      <trkpt lat="48.0561" lon="7.02524">
        <ele>1238.15</ele>
        <time>2016-03-15T18:26:12Z</time>
      </trkpt>
      <trkpt lat="48.0561" lon="7.02522">
        <ele>1238.99</ele>
        <time>2016-03-15T18:26:47Z</time>
      </trkpt>
      <trkpt lat="48.05614" lon="7.02521">
        <ele>1238.11</ele>
        <time>2016-03-15T18:27:17Z</time>
      </trkpt>
      <trkpt lat="48.05614" lon="7.02519">
        <ele>1238.17</ele>
        <time>2016-03-15T18:27:54Z</time>
      </trkpt>
      <trkpt lat="48.05608" lon="7.02519">
        <ele>1238.82</ele>
        <time>2016-03-15T18:28:05Z</time>
      </trkpt>
      <trkpt lat="48.05595" lon="7.02512">
        <ele>1240.25</ele>
        <time>2016-03-15T18:28:17Z</time>
      </trkpt>
      <trkpt lat="48.05587" lon="7.02493">
        <ele>1240.27</ele>
        <time>2016-03-15T18:28:31Z</time>
      </trkpt>
      <trkpt lat="48.05583" lon="7.0249">
        <ele>1240.48</ele>
        <time>2016-03-15T18:28:35Z</time>
      </trkpt>
      <trkpt lat="48.05569" lon="7.02476">
        <ele>1239.92</ele>
        <time>2016-03-15T18:28:50Z</time>
      </trkpt>
      <trkpt lat="48.05557" lon="7.02462">
        <ele>1240.44</ele>
        <time>2016-03-15T18:29:06Z</time>
      </trkpt>
      <trkpt lat="48.05555" lon="7.02461">
        <ele>1239.95</ele>
        <time>2016-03-15T18:29:09Z</time>
      </trkpt>
      <trkpt lat="48.05537" lon="7.02442">
        <ele>1241.01</ele>
        <time>2016-03-15T18:29:29Z</time>
      </trkpt>
      <trkpt lat="48.05533" lon="7.02435">
        <ele>1240.96</ele>
        <time>2016-03-15T18:29:34Z</time>
      </trkpt>
      <trkpt lat="48.05531" lon="7.02429">
        <ele>1240.12</ele>
        <time>2016-03-15T18:29:38Z</time>
      </trkpt>
      <trkpt lat="48.05527" lon="7.02421">
        <ele>1240.21</ele>
        <time>2016-03-15T18:29:48Z</time>
      </trkpt>
      <trkpt lat="48.05525" lon="7.02422">
        <ele>1239.97</ele>
        <time>2016-03-15T18:29:50Z</time>
      </trkpt>
      <trkpt lat="48.05501" lon="7.02412">
        <ele>1236.85</ele>
        <time>2016-03-15T18:30:12Z</time>
      </trkpt>
      <trkpt lat="48.05484" lon="7.024">
        <ele>1235.32</ele>
        <time>2016-03-15T18:30:30Z</time>
      </trkpt>
      <trkpt lat="48.05461" lon="7.02389">
        <ele>1232.25</ele>
        <time>2016-03-15T18:30:52Z</time>
      </trkpt>
      <trkpt lat="48.05444" lon="7.02392">
        <ele>1229.08</ele>
        <time>2016-03-15T18:31:07Z</time>
      </trkpt>
      <trkpt lat="48.05442" lon="7.02392">
        <ele>1229.3</ele>
        <time>2016-03-15T18:31:09Z</time>
      </trkpt>
      <trkpt lat="48.0544" lon="7.02391">
        <ele>1229.02</ele>
        <time>2016-03-15T18:31:11Z</time>
      </trkpt>
      <trkpt lat="48.05431" lon="7.02386">
        <ele>1227.92</ele>
        <time>2016-03-15T18:31:20Z</time>
      </trkpt>
      <trkpt lat="48.05423" lon="7.02384">
        <ele>1227</ele>
        <time>2016-03-15T18:31:27Z</time>
      </trkpt>
      <trkpt lat="48.05407" lon="7.02408">
        <ele>1225.72</ele>
        <time>2016-03-15T18:31:48Z</time>
      </trkpt>
      <trkpt lat="48.05397" lon="7.02418">
        <ele>1223.89</ele>
        <time>2016-03-15T18:32:00Z</time>
      </trkpt>
      <trkpt lat="48.05389" lon="7.0242">
        <ele>1222.91</ele>
        <time>2016-03-15T18:32:09Z</time>
      </trkpt>
      <trkpt lat="48.05383" lon="7.02421">
        <ele>1222.27</ele>
        <time>2016-03-15T18:32:16Z</time>
      </trkpt>
      <trkpt lat="48.05374" lon="7.02427">
        <ele>1219.53</ele>
        <time>2016-03-15T18:32:26Z</time>
      </trkpt>
      <trkpt lat="48.05373" lon="7.02427">
        <ele>1219.31</ele>
        <time>2016-03-15T18:32:27Z</time>
      </trkpt>
      <trkpt lat="48.05356" lon="7.02434">
        <ele>1217.09</ele>
        <time>2016-03-15T18:32:47Z</time>
      </trkpt>
      <trkpt lat="48.05347" lon="7.02437">
        <ele>1217.16</ele>
        <time>2016-03-15T18:32:58Z</time>
      </trkpt>
      <trkpt lat="48.0534" lon="7.02424">
        <ele>1216.5</ele>
        <time>2016-03-15T18:33:14Z</time>
      </trkpt>
      <trkpt lat="48.0534" lon="7.02423">
        <ele>1217.53</ele>
        <time>2016-03-15T18:33:17Z</time>
      </trkpt>
      <trkpt lat="48.05343" lon="7.02402">
        <ele>1215.02</ele>
        <time>2016-03-15T18:33:34Z</time>
      </trkpt>
      <trkpt lat="48.05339" lon="7.02394">
        <ele>1214.38</ele>
        <time>2016-03-15T18:33:41Z</time>
      </trkpt>
      <trkpt lat="48.05336" lon="7.02392">
        <ele>1214.2</ele>
        <time>2016-03-15T18:33:44Z</time>
      </trkpt>
      <trkpt lat="48.05331" lon="7.02391">
        <ele>1213.56</ele>
        <time>2016-03-15T18:33:49Z</time>
      </trkpt>
      <trkpt lat="48.05319" lon="7.02399">
        <ele>1210.72</ele>
        <time>2016-03-15T18:34:02Z</time>
      </trkpt>
      <trkpt lat="48.05323" lon="7.02431">
        <ele>1212.24</ele>
        <time>2016-03-15T18:34:21Z</time>
      </trkpt>
      <trkpt lat="48.05328" lon="7.02457">
        <ele>1212.02</ele>
        <time>2016-03-15T18:34:37Z</time>
      </trkpt>
      <trkpt lat="48.05335" lon="7.02495">
        <ele>1213.26</ele>
        <time>2016-03-15T18:35:00Z</time>
      </trkpt>
      <trkpt lat="48.05333" lon="7.02492">
        <ele>1212.77</ele>
        <time>2016-03-15T18:35:11Z</time>
      </trkpt>
      <trkpt lat="48.05333" lon="7.02492">
        <ele>1214.02</ele>
        <time>2016-03-15T18:35:15Z</time>
      </trkpt>
      <trkpt lat="48.05333" lon="7.02492">
        <ele>1213.91</ele>
        <time>2016-03-15T18:35:26Z</time>
      </trkpt>
      <trkpt lat="48.05333" lon="7.02495">
        <ele>1213.11</ele>
        <time>2016-03-15T18:35:29Z</time>
      </trkpt>
      <trkpt lat="48.05335" lon="7.02511">
        <ele>1212.6</ele>
        <time>2016-03-15T18:35:38Z</time>
      </trkpt>
      <trkpt lat="48.05329" lon="7.02536">
        <ele>1210.1</ele>
        <time>2016-03-15T18:35:54Z</time>
      </trkpt>
      <trkpt lat="48.05325" lon="7.02546">
        <ele>1209.45</ele>
        <time>2016-03-15T18:36:01Z</time>
      </trkpt>
      <trkpt lat="48.05321" lon="7.02558">
        <ele>1208.79</ele>
        <time>2016-03-15T18:36:09Z</time>
      </trkpt>
      <trkpt lat="48.05319" lon="7.02562">
        <ele>1208.61</ele>
        <time>2016-03-15T18:36:12Z</time>
      </trkpt>
      <trkpt lat="48.05318" lon="7.02568">
        <ele>1207.16</ele>
        <time>2016-03-15T18:36:17Z</time>
      </trkpt>
      <trkpt lat="48.05318" lon="7.02573">
        <ele>1208.56</ele>
        <time>2016-03-15T18:36:21Z</time>
      </trkpt>
      <trkpt lat="48.05318" lon="7.02578">
        <ele>1206.71</ele>
        <time>2016-03-15T18:36:24Z</time>
      </trkpt>
      <trkpt lat="48.05322" lon="7.02581">
        <ele>1207.82</ele>
        <time>2016-03-15T18:36:38Z</time>
      </trkpt>
      <trkpt lat="48.05322" lon="7.02581">
        <ele>1207.8</ele>
        <time>2016-03-15T18:36:39Z</time>
      </trkpt>
      <trkpt lat="48.05318" lon="7.0258">
        <ele>1205.55</ele>
        <time>2016-03-15T20:33:28Z</time>
      </trkpt>
      <trkpt lat="48.05326" lon="7.0257">
        <ele>1209.09</ele>
        <time>2016-03-15T20:33:43Z</time>
      </trkpt>
      <trkpt lat="48.05314" lon="7.02587">
        <ele>1209.82</ele>
        <time>2016-03-15T20:34:14Z</time>
      </trkpt>
      <trkpt lat="48.05324" lon="7.0257">
        <ele>1210.72</ele>
        <time>2016-03-15T20:35:20Z</time>
      </trkpt>
      <trkpt lat="48.05322" lon="7.02575">
        <ele>1209.83</ele>
        <time>2016-03-15T20:35:47Z</time>
      </trkpt>
      <trkpt lat="48.05326" lon="7.02571">
        <ele>1210.36</ele>
        <time>2016-03-15T20:36:12Z</time>
      </trkpt>
      <trkpt lat="48.05326" lon="7.02572">
        <ele>1208.15</ele>
        <time>2016-03-15T20:36:19Z</time>
      </trkpt>
      <trkpt lat="48.05326" lon="7.02572">
        <ele>1209.74</ele>
        <time>2016-03-15T20:36:21Z</time>
      </trkpt>
      <trkpt lat="48.05326" lon="7.02572">
        <ele>1208.51</ele>
        <time>2016-03-15T20:36:23Z</time>
      </trkpt>
      <trkpt lat="48.05325" lon="7.02574">
        <ele>1208.61</ele>
        <time>2016-03-15T20:36:53Z</time>
      </trkpt>
      <trkpt lat="48.05325" lon="7.02573">
        <ele>1208.38</ele>
        <time>2016-03-15T20:36:59Z</time>
      </trkpt>
      <trkpt lat="48.05325" lon="7.02573">
        <ele>1210.71</ele>
        <time>2016-03-15T20:37:09Z</time>
      </trkpt>
      <trkpt lat="48.05324" lon="7.02573">
        <ele>1208.91</ele>
        <time>2016-03-15T20:37:24Z</time>
      </trkpt>
      <trkpt lat="48.05323" lon="7.02573">
        <ele>1201.59</ele>
        <time>2016-03-15T20:37:38Z</time>
      </trkpt>
      <trkpt lat="48.05323" lon="7.02573">
        <ele>1206.12</ele>
        <time>2016-03-15T20:37:39Z</time>
      </trkpt>
      <trkpt lat="48.05322" lon="7.02572">
        <ele>1209.35</ele>
        <time>2016-03-15T20:37:44Z</time>
      </trkpt>
      <trkpt lat="48.05321" lon="7.02571">
        <ele>1212.73</ele>
        <time>2016-03-15T20:37:54Z</time>
      </trkpt>
      <trkpt lat="48.05322" lon="7.02572">
        <ele>1210.2</ele>
        <time>2016-03-15T20:37:55Z</time>
      </trkpt>
      <trkpt lat="48.05322" lon="7.02573">
        <ele>1208.33</ele>
        <time>2016-03-15T20:37:58Z</time>
      </trkpt>
      <trkpt lat="48.05325" lon="7.02575">
        <ele>1208.7</ele>
        <time>2016-03-15T20:38:07Z</time>
      </trkpt>
      <trkpt lat="48.05323" lon="7.02571">
        <ele>1209.77</ele>
        <time>2016-03-15T20:38:19Z</time>
      </trkpt>
      <trkpt lat="48.05323" lon="7.0257">
        <ele>1207.94</ele>
        <time>2016-03-15T20:38:35Z</time>
      </trkpt>
      <trkpt lat="48.05324" lon="7.02571">
        <ele>1209.54</ele>
        <time>2016-03-15T20:38:45Z</time>
      </trkpt>
      <trkpt lat="48.05322" lon="7.02573">
        <ele>1209.05</ele>
        <time>2016-03-15T20:39:08Z</time>
      </trkpt>
      <trkpt lat="48.05321" lon="7.02576">
        <ele>1208.99</ele>
        <time>2016-03-15T20:39:20Z</time>
      </trkpt>
      <trkpt lat="48.0532" lon="7.02577">
        <ele>1207.6</ele>
        <time>2016-03-15T20:39:25Z</time>
      </trkpt>
      <trkpt lat="48.0532" lon="7.02577">
        <ele>1209.73</ele>
        <time>2016-03-15T20:39:27Z</time>
      </trkpt>
      <trkpt lat="48.05319" lon="7.02576">
        <ele>1209.59</ele>
        <time>2016-03-15T20:39:45Z</time>
      </trkpt>
      <trkpt lat="48.05316" lon="7.02577">
        <ele>1209.99</ele>
        <time>2016-03-15T20:40:09Z</time>
      </trkpt>
      <trkpt lat="48.05317" lon="7.02581">
        <ele>1209.35</ele>
        <time>2016-03-15T20:40:28Z</time>
      </trkpt>
      <trkpt lat="48.05317" lon="7.02577">
        <ele>1210.57</ele>
        <time>2016-03-15T20:40:48Z</time>
      </trkpt>
      <trkpt lat="48.05317" lon="7.02565">
        <ele>1211.57</ele>
        <time>2016-03-15T20:41:11Z</time>
      </trkpt>
      <trkpt lat="48.05321" lon="7.02548">
        <ele>1212.27</ele>
        <time>2016-03-15T20:41:29Z</time>
      </trkpt>
      <trkpt lat="48.05326" lon="7.02536">
        <ele>1213.88</ele>
        <time>2016-03-15T20:41:44Z</time>
      </trkpt>
      <trkpt lat="48.0533" lon="7.02513">
        <ele>1216.41</ele>
        <time>2016-03-15T20:42:01Z</time>
      </trkpt>
      <trkpt lat="48.0533" lon="7.02503">
        <ele>1217.21</ele>
        <time>2016-03-15T20:42:08Z</time>
      </trkpt>
      <trkpt lat="48.05329" lon="7.02495">
        <ele>1217.42</ele>
        <time>2016-03-15T20:42:14Z</time>
      </trkpt>
      <trkpt lat="48.05329" lon="7.02492">
        <ele>1216.43</ele>
        <time>2016-03-15T20:42:16Z</time>
      </trkpt>
      <trkpt lat="48.05323" lon="7.02458">
        <ele>1216.27</ele>
        <time>2016-03-15T20:42:38Z</time>
      </trkpt>
      <trkpt lat="48.05322" lon="7.02447">
        <ele>1216.01</ele>
        <time>2016-03-15T20:42:46Z</time>
      </trkpt>
      <trkpt lat="48.0532" lon="7.02439">
        <ele>1215.8</ele>
        <time>2016-03-15T20:42:51Z</time>
      </trkpt>
      <trkpt lat="48.05316" lon="7.02411">
        <ele>1215.9</ele>
        <time>2016-03-15T20:43:10Z</time>
      </trkpt>
      <trkpt lat="48.05312" lon="7.02383">
        <ele>1216.04</ele>
        <time>2016-03-15T20:43:29Z</time>
      </trkpt>
      <trkpt lat="48.05311" lon="7.02378">
        <ele>1219.82</ele>
        <time>2016-03-15T20:43:32Z</time>
      </trkpt>
      <trkpt lat="48.05308" lon="7.0237">
        <ele>1216.63</ele>
        <time>2016-03-15T20:43:38Z</time>
      </trkpt>
      <trkpt lat="48.05307" lon="7.02364">
        <ele>1216.69</ele>
        <time>2016-03-15T20:43:42Z</time>
      </trkpt>
      <trkpt lat="48.05299" lon="7.02335">
        <ele>1217.84</ele>
        <time>2016-03-15T20:44:02Z</time>
      </trkpt>
      <trkpt lat="48.05293" lon="7.02311">
        <ele>1217.47</ele>
        <time>2016-03-15T20:44:19Z</time>
      </trkpt>
      <trkpt lat="48.05291" lon="7.02307">
        <ele>1217.89</ele>
        <time>2016-03-15T20:44:23Z</time>
      </trkpt>
      <trkpt lat="48.0529" lon="7.02303">
        <ele>1218.63</ele>
        <time>2016-03-15T20:44:26Z</time>
      </trkpt>
      <trkpt lat="48.05282" lon="7.02274">
        <ele>1220.25</ele>
        <time>2016-03-15T20:44:47Z</time>
      </trkpt>
      <trkpt lat="48.0528" lon="7.02259">
        <ele>1220.88</ele>
        <time>2016-03-15T20:44:56Z</time>
      </trkpt>
      <trkpt lat="48.0528" lon="7.0225">
        <ele>1221.38</ele>
        <time>2016-03-15T20:45:05Z</time>
      </trkpt>
      <trkpt lat="48.0528" lon="7.02248">
        <ele>1220.69</ele>
        <time>2016-03-15T20:45:10Z</time>
      </trkpt>
      <trkpt lat="48.0528" lon="7.02244">
        <ele>1221.1</ele>
        <time>2016-03-15T20:45:21Z</time>
      </trkpt>
      <trkpt lat="48.05278" lon="7.02243">
        <ele>1219.15</ele>
        <time>2016-03-15T20:45:23Z</time>
      </trkpt>
      <trkpt lat="48.05277" lon="7.02242">
        <ele>1215.58</ele>
        <time>2016-03-15T20:45:24Z</time>
      </trkpt>
      <trkpt lat="48.05276" lon="7.02242">
        <ele>1220.62</ele>
        <time>2016-03-15T20:45:25Z</time>
      </trkpt>
      <trkpt lat="48.05276" lon="7.02241">
        <ele>1217.73</ele>
        <time>2016-03-15T20:45:26Z</time>
      </trkpt>
      <trkpt lat="48.05274" lon="7.02237">
        <ele>1225.74</ele>
        <time>2016-03-15T20:45:29Z</time>
      </trkpt>
      <trkpt lat="48.05274" lon="7.02235">
        <ele>1221.9</ele>
        <time>2016-03-15T20:45:30Z</time>
      </trkpt>
      <trkpt lat="48.05268" lon="7.02215">
        <ele>1224.01</ele>
        <time>2016-03-15T20:45:45Z</time>
      </trkpt>
      <trkpt lat="48.05266" lon="7.02209">
        <ele>1222.56</ele>
        <time>2016-03-15T20:45:50Z</time>
      </trkpt>
      <trkpt lat="48.05263" lon="7.02201">
        <ele>1227.76</ele>
        <time>2016-03-15T20:45:55Z</time>
      </trkpt>
      <trkpt lat="48.05263" lon="7.022">
        <ele>1225.84</ele>
        <time>2016-03-15T20:45:56Z</time>
      </trkpt>
      <trkpt lat="48.05262" lon="7.02197">
        <ele>1221.22</ele>
        <time>2016-03-15T20:45:58Z</time>
      </trkpt>
      <trkpt lat="48.05258" lon="7.02184">
        <ele>1221.96</ele>
        <time>2016-03-15T20:46:08Z</time>
      </trkpt>
      <trkpt lat="48.05251" lon="7.02167">
        <ele>1222.45</ele>
        <time>2016-03-15T20:46:19Z</time>
      </trkpt>
      <trkpt lat="48.05244" lon="7.02146">
        <ele>1220.48</ele>
        <time>2016-03-15T20:46:33Z</time>
      </trkpt>
      <trkpt lat="48.05244" lon="7.02143">
        <ele>1224.3</ele>
        <time>2016-03-15T20:46:35Z</time>
      </trkpt>
      <trkpt lat="48.05244" lon="7.02143">
        <ele>1223.85</ele>
        <time>2016-03-15T20:46:36Z</time>
      </trkpt>
      <trkpt lat="48.05243" lon="7.0214">
        <ele>1222.15</ele>
        <time>2016-03-15T20:46:39Z</time>
      </trkpt>
      <trkpt lat="48.05242" lon="7.02136">
        <ele>1224.04</ele>
        <time>2016-03-15T20:46:42Z</time>
      </trkpt>
      <trkpt lat="48.05241" lon="7.02132">
        <ele>1223.67</ele>
        <time>2016-03-15T20:46:44Z</time>
      </trkpt>
      <trkpt lat="48.05238" lon="7.02125">
        <ele>1225.72</ele>
        <time>2016-03-15T20:46:49Z</time>
      </trkpt>
      <trkpt lat="48.05238" lon="7.02124">
        <ele>1226.76</ele>
        <time>2016-03-15T20:46:50Z</time>
      </trkpt>
      <trkpt lat="48.05237" lon="7.02121">
        <ele>1224.84</ele>
        <time>2016-03-15T20:46:52Z</time>
      </trkpt>
      <trkpt lat="48.05229" lon="7.0209">
        <ele>1224.25</ele>
        <time>2016-03-15T20:47:12Z</time>
      </trkpt>
      <trkpt lat="48.05226" lon="7.0208">
        <ele>1222.47</ele>
        <time>2016-03-15T20:47:19Z</time>
      </trkpt>
      <trkpt lat="48.05225" lon="7.02077">
        <ele>1224.72</ele>
        <time>2016-03-15T20:47:21Z</time>
      </trkpt>
      <trkpt lat="48.05224" lon="7.02074">
        <ele>1226.47</ele>
        <time>2016-03-15T20:47:23Z</time>
      </trkpt>
      <trkpt lat="48.05223" lon="7.02073">
        <ele>1223.41</ele>
        <time>2016-03-15T20:47:24Z</time>
      </trkpt>
      <trkpt lat="48.05222" lon="7.02069">
        <ele>1229.92</ele>
        <time>2016-03-15T20:47:26Z</time>
      </trkpt>
      <trkpt lat="48.05222" lon="7.02067">
        <ele>1228.81</ele>
        <time>2016-03-15T20:47:27Z</time>
      </trkpt>
      <trkpt lat="48.05221" lon="7.02064">
        <ele>1225.26</ele>
        <time>2016-03-15T20:47:29Z</time>
      </trkpt>
      <trkpt lat="48.05221" lon="7.02063">
        <ele>1225.27</ele>
        <time>2016-03-15T20:47:30Z</time>
      </trkpt>
      <trkpt lat="48.05215" lon="7.02044">
        <ele>1226.61</ele>
        <time>2016-03-15T20:47:45Z</time>
      </trkpt>
      <trkpt lat="48.05212" lon="7.02035">
        <ele>1226.48</ele>
        <time>2016-03-15T20:47:51Z</time>
      </trkpt>
      <trkpt lat="48.0521" lon="7.02026">
        <ele>1229.8</ele>
        <time>2016-03-15T20:48:02Z</time>
      </trkpt>
      <trkpt lat="48.052" lon="7.01999">
        <ele>1229.56</ele>
        <time>2016-03-15T20:48:22Z</time>
      </trkpt>
      <trkpt lat="48.05192" lon="7.01976">
        <ele>1229.98</ele>
        <time>2016-03-15T20:48:40Z</time>
      </trkpt>
      <trkpt lat="48.05188" lon="7.01967">
        <ele>1229.31</ele>
        <time>2016-03-15T20:48:50Z</time>
      </trkpt>
      <trkpt lat="48.05176" lon="7.01947">
        <ele>1228.85</ele>
        <time>2016-03-15T20:49:08Z</time>
      </trkpt>
      <trkpt lat="48.05168" lon="7.01926">
        <ele>1229.44</ele>
        <time>2016-03-15T20:49:26Z</time>
      </trkpt>
      <trkpt lat="48.05166" lon="7.01904">
        <ele>1229.88</ele>
        <time>2016-03-15T20:49:40Z</time>
      </trkpt>
      <trkpt lat="48.05169" lon="7.01878">
        <ele>1229.57</ele>
        <time>2016-03-15T20:50:00Z</time>
      </trkpt>
      <trkpt lat="48.05171" lon="7.01851">
        <ele>1232.42</ele>
        <time>2016-03-15T20:50:17Z</time>
      </trkpt>
      <trkpt lat="48.05172" lon="7.01838">
        <ele>1231.94</ele>
        <time>2016-03-15T20:50:26Z</time>
      </trkpt>
      <trkpt lat="48.05175" lon="7.01803">
        <ele>1231.26</ele>
        <time>2016-03-15T20:50:52Z</time>
      </trkpt>
      <trkpt lat="48.05174" lon="7.01791">
        <ele>1232.06</ele>
        <time>2016-03-15T20:50:57Z</time>
      </trkpt>
      <trkpt lat="48.05176" lon="7.01777">
        <ele>1231.66</ele>
        <time>2016-03-15T20:51:09Z</time>
      </trkpt>
      <trkpt lat="48.0518" lon="7.01741">
        <ele>1230.58</ele>
        <time>2016-03-15T20:51:36Z</time>
      </trkpt>
      <trkpt lat="48.05183" lon="7.01722">
        <ele>1232.79</ele>
        <time>2016-03-15T20:51:48Z</time>
      </trkpt>
      <trkpt lat="48.05185" lon="7.01695">
        <ele>1232.46</ele>
        <time>2016-03-15T20:52:05Z</time>
      </trkpt>
      <trkpt lat="48.05188" lon="7.01657">
        <ele>1233.02</ele>
        <time>2016-03-15T20:52:31Z</time>
      </trkpt>
      <trkpt lat="48.05188" lon="7.01652">
        <ele>1233.65</ele>
        <time>2016-03-15T20:52:33Z</time>
      </trkpt>
      <trkpt lat="48.05187" lon="7.01642">
        <ele>1232.58</ele>
        <time>2016-03-15T20:52:38Z</time>
      </trkpt>
      <trkpt lat="48.05186" lon="7.016">
        <ele>1230.65</ele>
        <time>2016-03-15T20:53:05Z</time>
      </trkpt>
      <trkpt lat="48.05182" lon="7.01561">
        <ele>1227.86</ele>
        <time>2016-03-15T20:53:28Z</time>
      </trkpt>
      <trkpt lat="48.05183" lon="7.0155">
        <ele>1227.25</ele>
        <time>2016-03-15T20:53:35Z</time>
      </trkpt>
      <trkpt lat="48.05187" lon="7.01525">
        <ele>1225.65</ele>
        <time>2016-03-15T20:53:54Z</time>
      </trkpt>
      <trkpt lat="48.05191" lon="7.01494">
        <ele>1225.07</ele>
        <time>2016-03-15T20:54:15Z</time>
      </trkpt>
      <trkpt lat="48.05191" lon="7.01485">
        <ele>1221.2</ele>
        <time>2016-03-15T20:54:20Z</time>
      </trkpt>
      <trkpt lat="48.05196" lon="7.01454">
        <ele>1221.43</ele>
        <time>2016-03-15T20:54:38Z</time>
      </trkpt>
      <trkpt lat="48.05199" lon="7.01448">
        <ele>1218.92</ele>
        <time>2016-03-15T20:54:46Z</time>
      </trkpt>
      <trkpt lat="48.05203" lon="7.01444">
        <ele>1221.16</ele>
        <time>2016-03-15T20:54:53Z</time>
      </trkpt>
      <trkpt lat="48.05203" lon="7.01442">
        <ele>1219.55</ele>
        <time>2016-03-15T20:55:10Z</time>
      </trkpt>
      <trkpt lat="48.05203" lon="7.01443">
        <ele>1220.9</ele>
        <time>2016-03-15T20:55:13Z</time>
      </trkpt>
      <trkpt lat="48.05202" lon="7.01446">
        <ele>1219.64</ele>
        <time>2016-03-15T20:55:48Z</time>
      </trkpt>
      <trkpt lat="48.05209" lon="7.01446">
        <ele>1218.41</ele>
        <time>2016-03-15T20:56:13Z</time>
      </trkpt>
      <trkpt lat="48.05213" lon="7.01445">
        <ele>1218.97</ele>
        <time>2016-03-15T20:56:38Z</time>
      </trkpt>
      <trkpt lat="48.05215" lon="7.01447">
        <ele>1218.53</ele>
        <time>2016-03-15T20:57:05Z</time>
      </trkpt>
      <trkpt lat="48.05226" lon="7.01445">
        <ele>1217.89</ele>
        <time>2016-03-15T20:57:30Z</time>
      </trkpt>
      <trkpt lat="48.05227" lon="7.01444">
        <ele>1216.84</ele>
        <time>2016-03-15T20:57:31Z</time>
      </trkpt>
      <trkpt lat="48.05231" lon="7.0144">
        <ele>1217.42</ele>
        <time>2016-03-15T20:57:35Z</time>
      </trkpt>
      <trkpt lat="48.05232" lon="7.01437">
        <ele>1216.96</ele>
        <time>2016-03-15T20:57:37Z</time>
      </trkpt>
      <trkpt lat="48.05238" lon="7.01424">
        <ele>1216.69</ele>
        <time>2016-03-15T20:57:51Z</time>
      </trkpt>
      <trkpt lat="48.05247" lon="7.01419">
        <ele>1213.45</ele>
        <time>2016-03-15T20:58:01Z</time>
      </trkpt>
      <trkpt lat="48.05258" lon="7.01396">
        <ele>1212.55</ele>
        <time>2016-03-15T20:58:24Z</time>
      </trkpt>
      <trkpt lat="48.05271" lon="7.01383">
        <ele>1211.22</ele>
        <time>2016-03-15T20:58:41Z</time>
      </trkpt>
      <trkpt lat="48.05288" lon="7.01384">
        <ele>1210.89</ele>
        <time>2016-03-15T20:58:59Z</time>
      </trkpt>
      <trkpt lat="48.05303" lon="7.01381">
        <ele>1211.17</ele>
        <time>2016-03-15T20:59:16Z</time>
      </trkpt>
      <trkpt lat="48.05319" lon="7.01381">
        <ele>1210.11</ele>
        <time>2016-03-15T20:59:31Z</time>
      </trkpt>
      <trkpt lat="48.0534" lon="7.01378">
        <ele>1210.13</ele>
        <time>2016-03-15T20:59:53Z</time>
      </trkpt>
      <trkpt lat="48.05355" lon="7.01385">
        <ele>1210.83</ele>
        <time>2016-03-15T21:00:11Z</time>
      </trkpt>
      <trkpt lat="48.05359" lon="7.01379">
        <ele>1210.15</ele>
        <time>2016-03-15T21:00:24Z</time>
      </trkpt>
      <trkpt lat="48.05356" lon="7.01363">
        <ele>1208.81</ele>
        <time>2016-03-15T21:00:38Z</time>
      </trkpt>
      <trkpt lat="48.0535" lon="7.01351">
        <ele>1207.15</ele>
        <time>2016-03-15T21:00:50Z</time>
      </trkpt>
      <trkpt lat="48.0535" lon="7.01331">
        <ele>1205.2</ele>
        <time>2016-03-15T21:01:05Z</time>
      </trkpt>
      <trkpt lat="48.0535" lon="7.01327">
        <ele>1204.38</ele>
        <time>2016-03-15T21:01:07Z</time>
      </trkpt>
      <trkpt lat="48.05357" lon="7.01313">
        <ele>1203.06</ele>
        <time>2016-03-15T21:01:22Z</time>
      </trkpt>
      <trkpt lat="48.05362" lon="7.01295">
        <ele>1200.33</ele>
        <time>2016-03-15T21:01:36Z</time>
      </trkpt>
      <trkpt lat="48.05364" lon="7.01293">
        <ele>1200.25</ele>
        <time>2016-03-15T21:01:38Z</time>
      </trkpt>
      <trkpt lat="48.0537" lon="7.01277">
        <ele>1197.99</ele>
        <time>2016-03-15T21:01:52Z</time>
      </trkpt>
      <trkpt lat="48.05381" lon="7.0126">
        <ele>1197.55</ele>
        <time>2016-03-15T21:02:07Z</time>
      </trkpt>
      <trkpt lat="48.05387" lon="7.01234">
        <ele>1196.4</ele>
        <time>2016-03-15T21:02:24Z</time>
      </trkpt>
      <trkpt lat="48.05385" lon="7.01213">
        <ele>1195.36</ele>
        <time>2016-03-15T21:02:40Z</time>
      </trkpt>
      <trkpt lat="48.05385" lon="7.01212">
        <ele>1193.7</ele>
        <time>2016-03-15T21:02:47Z</time>
      </trkpt>
      <trkpt lat="48.05385" lon="7.01211">
        <ele>1197.35</ele>
        <time>2016-03-15T21:03:03Z</time>
      </trkpt>
      <trkpt lat="48.05385" lon="7.01212">
        <ele>1194.26</ele>
        <time>2016-03-15T21:03:05Z</time>
      </trkpt>
      <trkpt lat="48.05385" lon="7.01212">
        <ele>1194.35</ele>
        <time>2016-03-15T21:03:06Z</time>
      </trkpt>
      <trkpt lat="48.05384" lon="7.01212">
        <ele>1194.48</ele>
        <time>2016-03-15T21:03:27Z</time>
      </trkpt>
      <trkpt lat="48.05386" lon="7.01202">
        <ele>1192.65</ele>
        <time>2016-03-15T21:03:41Z</time>
      </trkpt>
      <trkpt lat="48.05392" lon="7.01191">
        <ele>1189.89</ele>
        <time>2016-03-15T21:03:55Z</time>
      </trkpt>
      <trkpt lat="48.05405" lon="7.01172">
        <ele>1190.06</ele>
        <time>2016-03-15T21:04:13Z</time>
      </trkpt>
      <trkpt lat="48.05412" lon="7.01156">
        <ele>1186.9</ele>
        <time>2016-03-15T21:04:26Z</time>
      </trkpt>
      <trkpt lat="48.05417" lon="7.01131">
        <ele>1185.03</ele>
        <time>2016-03-15T21:04:43Z</time>
      </trkpt>
      <trkpt lat="48.05418" lon="7.01127">
        <ele>1184.81</ele>
        <time>2016-03-15T21:04:45Z</time>
      </trkpt>
      <trkpt lat="48.05414" lon="7.01116">
        <ele>1183.86</ele>
        <time>2016-03-15T21:04:53Z</time>
      </trkpt>
      <trkpt lat="48.05408" lon="7.01107">
        <ele>1183.38</ele>
        <time>2016-03-15T21:05:05Z</time>
      </trkpt>
      <trkpt lat="48.05399" lon="7.01098">
        <ele>1182.25</ele>
        <time>2016-03-15T21:05:21Z</time>
      </trkpt>
      <trkpt lat="48.05397" lon="7.01092">
        <ele>1180.58</ele>
        <time>2016-03-15T21:05:40Z</time>
      </trkpt>
      <trkpt lat="48.05394" lon="7.01088">
        <ele>1181.09</ele>
        <time>2016-03-15T21:05:48Z</time>
      </trkpt>
      <trkpt lat="48.05396" lon="7.01077">
        <ele>1179.3</ele>
        <time>2016-03-15T21:05:55Z</time>
      </trkpt>
      <trkpt lat="48.05402" lon="7.01062">
        <ele>1177.78</ele>
        <time>2016-03-15T21:06:09Z</time>
      </trkpt>
      <trkpt lat="48.05406" lon="7.01052">
        <ele>1175.76</ele>
        <time>2016-03-15T21:06:26Z</time>
      </trkpt>
      <trkpt lat="48.05411" lon="7.01047">
        <ele>1176.12</ele>
        <time>2016-03-15T21:06:38Z</time>
      </trkpt>
      <trkpt lat="48.05416" lon="7.01042">
        <ele>1176.45</ele>
        <time>2016-03-15T21:06:49Z</time>
      </trkpt>
      <trkpt lat="48.0542" lon="7.01047">
        <ele>1178.01</ele>
        <time>2016-03-15T21:07:02Z</time>
      </trkpt>
      <trkpt lat="48.05424" lon="7.01042">
        <ele>1177.54</ele>
        <time>2016-03-15T21:07:11Z</time>
      </trkpt>
      <trkpt lat="48.05428" lon="7.01023">
        <ele>1175.83</ele>
        <time>2016-03-15T21:07:27Z</time>
      </trkpt>
      <trkpt lat="48.05427" lon="7.00999">
        <ele>1173.03</ele>
        <time>2016-03-15T21:07:43Z</time>
      </trkpt>
      <trkpt lat="48.05427" lon="7.00977">
        <ele>1172</ele>
        <time>2016-03-15T21:07:57Z</time>
      </trkpt>
      <trkpt lat="48.05427" lon="7.00968">
        <ele>1172.2</ele>
        <time>2016-03-15T21:08:16Z</time>
      </trkpt>
      <trkpt lat="48.05427" lon="7.00968">
        <ele>1171.55</ele>
        <time>2016-03-15T21:08:38Z</time>
      </trkpt>
      <trkpt lat="48.05426" lon="7.00967">
        <ele>1172.09</ele>
        <time>2016-03-15T21:08:53Z</time>
      </trkpt>
      <trkpt lat="48.05426" lon="7.00959">
        <ele>1170.97</ele>
        <time>2016-03-15T21:09:13Z</time>
      </trkpt>
      <trkpt lat="48.05432" lon="7.00941">
        <ele>1169.8</ele>
        <time>2016-03-15T21:09:26Z</time>
      </trkpt>
      <trkpt lat="48.05435" lon="7.00935">
        <ele>1171.07</ele>
        <time>2016-03-15T21:09:31Z</time>
      </trkpt>
      <trkpt lat="48.05434" lon="7.0092">
        <ele>1168.8</ele>
        <time>2016-03-15T21:09:40Z</time>
      </trkpt>
      <trkpt lat="48.05432" lon="7.00904">
        <ele>1165.74</ele>
        <time>2016-03-15T21:09:53Z</time>
      </trkpt>
      <trkpt lat="48.05432" lon="7.00888">
        <ele>1162.69</ele>
        <time>2016-03-15T21:10:06Z</time>
      </trkpt>
      <trkpt lat="48.05431" lon="7.00868">
        <ele>1159.21</ele>
        <time>2016-03-15T21:10:21Z</time>
      </trkpt>
      <trkpt lat="48.05434" lon="7.00846">
        <ele>1155.83</ele>
        <time>2016-03-15T21:10:36Z</time>
      </trkpt>
      <trkpt lat="48.05434" lon="7.00841">
        <ele>1154.91</ele>
        <time>2016-03-15T21:10:40Z</time>
      </trkpt>
      <trkpt lat="48.05433" lon="7.00823">
        <ele>1152.67</ele>
        <time>2016-03-15T21:10:52Z</time>
      </trkpt>
      <trkpt lat="48.05431" lon="7.00803">
        <ele>1149.44</ele>
        <time>2016-03-15T21:11:07Z</time>
      </trkpt>
      <trkpt lat="48.05432" lon="7.00787">
        <ele>1146.06</ele>
        <time>2016-03-15T21:11:19Z</time>
      </trkpt>
      <trkpt lat="48.05431" lon="7.00772">
        <ele>1144.42</ele>
        <time>2016-03-15T21:11:32Z</time>
      </trkpt>
      <trkpt lat="48.05431" lon="7.00763">
        <ele>1142.24</ele>
        <time>2016-03-15T21:11:39Z</time>
      </trkpt>
      <trkpt lat="48.05428" lon="7.00745">
        <ele>1138.78</ele>
        <time>2016-03-15T21:11:52Z</time>
      </trkpt>
      <trkpt lat="48.05426" lon="7.00738">
        <ele>1137.35</ele>
        <time>2016-03-15T21:11:57Z</time>
      </trkpt>
      <trkpt lat="48.05422" lon="7.00718">
        <ele>1134.2</ele>
        <time>2016-03-15T21:12:11Z</time>
      </trkpt>
      <trkpt lat="48.05419" lon="7.00697">
        <ele>1131.68</ele>
        <time>2016-03-15T21:12:27Z</time>
      </trkpt>
      <trkpt lat="48.05417" lon="7.00674">
        <ele>1128.81</ele>
        <time>2016-03-15T21:12:44Z</time>
      </trkpt>
      <trkpt lat="48.05414" lon="7.0066">
        <ele>1125.66</ele>
        <time>2016-03-15T21:12:55Z</time>
      </trkpt>
      <trkpt lat="48.05411" lon="7.00645">
        <ele>1122.49</ele>
        <time>2016-03-15T21:13:07Z</time>
      </trkpt>
      <trkpt lat="48.05408" lon="7.00622">
        <ele>1119.23</ele>
        <time>2016-03-15T21:13:24Z</time>
      </trkpt>
      <trkpt lat="48.05407" lon="7.00609">
        <ele>1116.12</ele>
        <time>2016-03-15T21:13:34Z</time>
      </trkpt>
      <trkpt lat="48.05405" lon="7.0059">
        <ele>1112.7</ele>
        <time>2016-03-15T21:13:50Z</time>
      </trkpt>
      <trkpt lat="48.05406" lon="7.0058">
        <ele>1112.11</ele>
        <time>2016-03-15T21:13:57Z</time>
      </trkpt>
      <trkpt lat="48.05407" lon="7.00564">
        <ele>1109.45</ele>
        <time>2016-03-15T21:14:10Z</time>
      </trkpt>
      <trkpt lat="48.05403" lon="7.00562">
        <ele>1108.57</ele>
        <time>2016-03-15T21:14:13Z</time>
      </trkpt>
      <trkpt lat="48.05388" lon="7.0056">
        <ele>1106.65</ele>
        <time>2016-03-15T21:14:30Z</time>
      </trkpt>
      <trkpt lat="48.05379" lon="7.00551">
        <ele>1103.67</ele>
        <time>2016-03-15T21:14:45Z</time>
      </trkpt>
      <trkpt lat="48.0538" lon="7.0055">
        <ele>1103.62</ele>
        <time>2016-03-15T21:14:46Z</time>
      </trkpt>
      <trkpt lat="48.05391" lon="7.00525">
        <ele>1101.67</ele>
        <time>2016-03-15T21:15:04Z</time>
      </trkpt>
      <trkpt lat="48.05397" lon="7.00505">
        <ele>1100.69</ele>
        <time>2016-03-15T21:15:22Z</time>
      </trkpt>
      <trkpt lat="48.05399" lon="7.00501">
        <ele>1100.36</ele>
        <time>2016-03-15T21:15:39Z</time>
      </trkpt>
      <trkpt lat="48.05399" lon="7.00504">
        <ele>1101.06</ele>
        <time>2016-03-15T21:16:05Z</time>
      </trkpt>
      <trkpt lat="48.05395" lon="7.00504">
        <ele>1100.67</ele>
        <time>2016-03-15T21:16:30Z</time>
      </trkpt>
      <trkpt lat="48.05392" lon="7.00503">
        <ele>1102.09</ele>
        <time>2016-03-15T21:16:44Z</time>
      </trkpt>
      <trkpt lat="48.05392" lon="7.00503">
        <ele>1100.78</ele>
        <time>2016-03-15T21:16:48Z</time>
      </trkpt>
      <trkpt lat="48.05395" lon="7.00502">
        <ele>1100.61</ele>
        <time>2016-03-15T21:17:12Z</time>
      </trkpt>
      <trkpt lat="48.05396" lon="7.00503">
        <ele>1101.37</ele>
        <time>2016-03-15T21:17:35Z</time>
      </trkpt>
      <trkpt lat="48.05394" lon="7.00499">
        <ele>1101.76</ele>
        <time>2016-03-15T21:17:51Z</time>
      </trkpt>
      <trkpt lat="48.05392" lon="7.00495">
        <ele>1101.79</ele>
        <time>2016-03-15T21:18:18Z</time>
      </trkpt>
      <trkpt lat="48.05392" lon="7.00495">
        <ele>1101.52</ele>
        <time>2016-03-15T21:18:43Z</time>
      </trkpt>
      <trkpt lat="48.05391" lon="7.00495">
        <ele>1102.21</ele>
        <time>2016-03-15T21:18:49Z</time>
      </trkpt>
      <trkpt lat="48.05393" lon="7.00494">
        <ele>1100.83</ele>
        <time>2016-03-15T21:19:15Z</time>
      </trkpt>
      <trkpt lat="48.05391" lon="7.00496">
        <ele>1101.32</ele>
        <time>2016-03-15T21:19:39Z</time>
      </trkpt>
      <trkpt lat="48.05392" lon="7.00497">
        <ele>1102.65</ele>
        <time>2016-03-15T21:19:45Z</time>
      </trkpt>
      <trkpt lat="48.05392" lon="7.00496">
        <ele>1102.97</ele>
        <time>2016-03-15T21:20:10Z</time>
      </trkpt>
      <trkpt lat="48.05389" lon="7.00493">
        <ele>1102.03</ele>
        <time>2016-03-15T21:20:38Z</time>
      </trkpt>
      <trkpt lat="48.0539" lon="7.00496">
        <ele>1102.97</ele>
        <time>2016-03-15T21:21:04Z</time>
      </trkpt>
      <trkpt lat="48.05394" lon="7.00498">
        <ele>1102.62</ele>
        <time>2016-03-15T21:21:28Z</time>
      </trkpt>
      <trkpt lat="48.05391" lon="7.00499">
        <ele>1103.01</ele>
        <time>2016-03-15T21:21:57Z</time>
      </trkpt>
      <trkpt lat="48.05391" lon="7.005">
        <ele>1103.36</ele>
        <time>2016-03-15T21:22:16Z</time>
      </trkpt>
      <trkpt lat="48.05393" lon="7.00502">
        <ele>1103.26</ele>
        <time>2016-03-15T21:22:34Z</time>
      </trkpt>
    </trkseg>
  </trk>
</gpx>